Time,TemperatureF,DewpointF,PressureIn,WindDirection,WindDirectionDegrees,WindSpeedMPH,WindSpeedGustMPH,Humidity,HourlyPrecipIn,Conditions,Clouds,dailyrainin,SoftwareType,DateUTC
2013-03-11 00:00:00,34.9,29.4,30.26,South,170,0.0,1.0,80,0.00,,---,0.00,VWS V14.00,2013-03-11 04:00:00,
2013-03-11 00:03:00,34.9,29.4,30.26,South,169,0.0,2.0,80,0.00,,---,0.00,VWS V14.00,2013-03-11 04:03:00,
2013-03-11 00:05:00,34.9,29.7,30.26,South,169,0.0,2.0,81,0.00,,---,0.00,VWS V14.00,2013-03-11 04:05:00,
2013-03-11 00:08:00,34.9,29.7,30.26,South,170,1.0,2.0,81,0.00,,---,0.00,VWS V14.00,2013-03-11 04:08:00,
2013-03-11 00:10:00,34.9,29.7,30.26,South,170,0.0,3.0,81,0.00,,---,0.00,VWS V14.00,2013-03-11 04:10:00,
2013-03-11 00:13:00,34.9,29.7,30.26,South,169,0.0,3.0,81,0.00,,---,0.00,VWS V14.00,2013-03-11 04:13:00,
2013-03-11 00:14:00,34.9,29.7,30.25,South,169,0.0,3.0,81,0.00,,---,0.00,VWS V14.00,2013-03-11 04:14:00,
2013-03-11 00:15:00,34.9,29.7,30.25,South,169,0.0,1.0,81,0.00,,---,0.00,VWS V14.00,2013-03-11 04:15:00,
2013-03-11 00:18:00,34.9,29.7,30.25,South,176,0.0,3.0,81,0.00,,---,0.00,VWS V14.00,2013-03-11 04:18:00,
2013-03-11 00:19:00,34.9,29.7,30.25,South,176,2.0,3.0,81,0.00,,---,0.00,VWS V14.00,2013-03-11 04:19:00,
2013-03-11 00:21:00,34.9,30.0,30.25,South,176,0.0,3.0,82,0.00,,---,0.00,VWS V14.00,2013-03-11 04:21:00,
2013-03-11 00:23:00,34.9,30.0,30.25,South,176,0.0,3.0,82,0.00,,---,0.00,VWS V14.00,2013-03-11 04:23:00,
2013-03-11 00:24:00,34.9,30.0,30.25,South,176,1.0,3.0,82,0.00,,---,0.00,VWS V14.00,2013-03-11 04:24:00,
2013-03-11 00:26:00,34.9,30.0,30.25,South,176,0.0,4.0,82,0.00,,---,0.00,VWS V14.00,2013-03-11 04:26:00,
2013-03-11 00:28:00,34.9,30.0,30.26,South,176,0.0,4.0,82,0.00,,---,0.00,VWS V14.00,2013-03-11 04:28:00,
2013-03-11 00:29:00,34.9,30.0,30.26,South,176,2.0,4.0,82,0.00,,---,0.00,VWS V14.00,2013-03-11 04:29:00,
2013-03-11 00:30:00,34.9,30.3,30.26,SSW,195,3.0,5.0,83,0.00,,---,0.00,VWS V14.00,2013-03-11 04:30:00,
2013-03-11 00:31:00,34.9,30.0,30.26,South,176,0.0,2.0,82,0.00,,---,0.00,VWS V14.00,2013-03-11 04:31:00,
2013-03-11 00:33:00,34.9,30.0,30.26,South,176,0.0,2.0,82,0.00,,---,0.00,VWS V14.00,2013-03-11 04:33:00,
2013-03-11 00:34:00,34.9,30.0,30.26,South,176,1.0,2.0,82,0.00,,---,0.00,VWS V14.00,2013-03-11 04:34:00,
2013-03-11 00:36:00,34.9,30.0,30.26,South,176,0.0,3.0,82,0.00,,---,0.00,VWS V14.00,2013-03-11 04:36:00,
2013-03-11 00:38:00,34.7,29.8,30.26,South,176,0.0,3.0,82,0.00,,---,0.00,VWS V14.00,2013-03-11 04:38:00,
2013-03-11 00:39:00,34.7,29.8,30.26,South,176,2.0,3.0,82,0.00,,---,0.00,VWS V14.00,2013-03-11 04:39:00,
2013-03-11 00:41:00,34.7,29.8,30.26,SW,226,1.0,4.0,82,0.00,,---,0.00,VWS V14.00,2013-03-11 04:41:00,
2013-03-11 00:43:00,34.7,29.8,30.25,SW,215,1.0,4.0,82,0.00,,---,0.00,VWS V14.00,2013-03-11 04:43:00,
2013-03-11 00:44:00,34.7,29.8,30.25,South,187,1.0,4.0,82,0.00,,---,0.00,VWS V14.00,2013-03-11 04:44:00,
2013-03-11 00:45:00,34.9,30.3,30.27,SW,236,0.0,5.0,83,0.00,,---,0.00,VWS V14.00,2013-03-11 04:45:00,
2013-03-11 00:46:00,34.7,29.8,30.25,South,181,0.0,2.0,82,0.00,,---,0.00,VWS V14.00,2013-03-11 04:46:00,
2013-03-11 00:48:00,34.7,30.1,30.25,South,181,0.0,3.0,83,0.00,,---,0.00,VWS V14.00,2013-03-11 04:48:00,
2013-03-11 00:49:00,34.7,30.1,30.25,South,181,0.0,3.0,83,0.00,,---,0.00,VWS V14.00,2013-03-11 04:49:00,
2013-03-11 00:52:00,34.7,30.1,30.25,SW,221,1.0,4.0,83,0.00,,---,0.00,VWS V14.00,2013-03-11 04:52:00,
2013-03-11 00:53:00,34.7,30.1,30.25,SW,221,1.0,4.0,83,0.00,,---,0.00,VWS V14.00,2013-03-11 04:53:00,
2013-03-11 00:54:00,34.7,30.1,30.25,SW,221,0.0,4.0,83,0.00,,---,0.00,VWS V14.00,2013-03-11 04:54:00,
2013-03-11 00:58:00,34.7,30.1,30.25,SSE,150,3.0,4.0,83,0.00,,---,0.00,VWS V14.00,2013-03-11 04:58:00,
2013-03-11 00:59:00,34.9,30.3,30.25,SSE,152,0.0,4.0,83,0.00,,---,0.00,VWS V14.00,2013-03-11 04:59:00,
2013-03-11 01:00:00,34.9,30.3,30.27,WSW,237,0.0,5.0,83,0.00,,---,0.00,VWS V14.00,2013-03-11 05:00:00,
2013-03-11 01:03:00,34.7,30.1,30.25,SW,220,3.0,5.0,83,0.00,,---,0.00,VWS V14.00,2013-03-11 05:03:00,
2013-03-11 01:04:00,34.9,30.3,30.25,SW,220,1.0,5.0,83,0.00,,---,0.00,VWS V14.00,2013-03-11 05:04:00,
2013-03-11 01:08:00,34.9,30.3,30.25,SW,221,0.0,5.0,83,0.00,,---,0.00,VWS V14.00,2013-03-11 05:08:00,
2013-03-11 01:09:00,34.9,30.3,30.25,SW,221,0.0,5.0,83,0.00,,---,0.00,VWS V14.00,2013-03-11 05:09:00,
2013-03-11 01:13:00,34.7,30.1,30.24,SW,221,0.0,5.0,83,0.00,,---,0.00,VWS V14.00,2013-03-11 05:13:00,
2013-03-11 01:14:00,34.7,30.1,30.24,SW,221,2.0,5.0,83,0.00,,---,0.00,VWS V14.00,2013-03-11 05:14:00,
2013-03-11 01:15:00,34.7,30.1,30.24,SW,221,1.0,1.0,83,0.00,,---,0.00,VWS V14.00,2013-03-11 05:15:00,
2013-03-11 01:18:00,34.7,30.1,30.24,SW,220,2.0,3.0,83,0.00,,---,0.00,VWS V14.00,2013-03-11 05:18:00,
2013-03-11 01:19:00,34.7,30.1,30.24,SW,220,1.0,3.0,83,0.00,,---,0.00,VWS V14.00,2013-03-11 05:19:00,
2013-03-11 01:20:00,34.7,30.1,30.24,SW,220,0.0,3.0,83,0.00,,---,0.00,VWS V14.00,2013-03-11 05:20:00,
2013-03-11 01:23:00,34.7,30.1,30.24,South,179,0.0,5.0,83,0.00,,---,0.00,VWS V14.00,2013-03-11 05:23:00,
2013-03-11 01:24:00,34.7,30.1,30.24,South,179,1.0,5.0,83,0.00,,---,0.00,VWS V14.00,2013-03-11 05:24:00,
2013-03-11 01:25:00,34.7,30.1,30.24,South,179,2.0,5.0,83,0.00,,---,0.00,VWS V14.00,2013-03-11 05:25:00,
2013-03-11 01:28:00,34.9,30.3,30.26,SSW,195,0.0,5.0,83,0.00,,---,0.00,VWS V14.00,2013-03-11 05:28:00,
2013-03-11 01:29:00,34.9,30.3,30.26,SSW,195,1.0,3.0,83,0.00,,---,0.00,VWS V14.00,2013-03-11 05:29:00,
2013-03-11 01:30:00,34.9,30.3,30.26,SSW,195,0.0,3.0,83,0.00,,---,0.00,VWS V14.00,2013-03-11 05:30:00,
2013-03-11 01:33:00,34.9,30.3,30.26,SW,236,0.0,5.0,83,0.00,,---,0.00,VWS V14.00,2013-03-11 05:33:00,
2013-03-11 01:34:00,34.9,30.3,30.26,SW,236,0.0,5.0,83,0.00,,---,0.00,VWS V14.00,2013-03-11 05:34:00,
2013-03-11 01:35:00,34.9,30.3,30.26,SW,236,0.0,5.0,83,0.00,,---,0.00,VWS V14.00,2013-03-11 05:35:00,
2013-03-11 01:39:00,34.9,30.3,30.26,SW,236,0.0,5.0,83,0.00,,---,0.00,VWS V14.00,2013-03-11 05:39:00,
2013-03-11 01:40:00,34.9,30.3,30.26,SW,236,0.0,5.0,83,0.00,,---,0.00,VWS V14.00,2013-03-11 05:40:00,
2013-03-11 01:44:00,34.9,30.3,30.27,SW,236,1.0,5.0,83,0.00,,---,0.00,VWS V14.00,2013-03-11 05:44:00,
2013-03-11 01:45:00,34.9,30.3,30.27,SW,236,0.0,0.0,83,0.00,,---,0.00,VWS V14.00,2013-03-11 05:45:00,
2013-03-11 01:49:00,34.9,30.3,30.27,WSW,237,0.0,5.0,83,0.00,,---,0.00,VWS V14.00,2013-03-11 05:49:00,
2013-03-11 01:50:00,34.9,30.3,30.27,WSW,237,0.0,5.0,83,0.00,,---,0.00,VWS V14.00,2013-03-11 05:50:00,
2013-03-11 01:54:00,34.9,30.3,30.27,WSW,237,0.0,5.0,83,0.00,,---,0.00,VWS V14.00,2013-03-11 05:54:00,
2013-03-11 01:55:00,34.9,30.3,30.27,WSW,237,0.0,5.0,83,0.00,,---,0.00,VWS V14.00,2013-03-11 05:55:00,
2013-03-11 01:59:00,34.9,30.3,30.27,WSW,237,0.0,5.0,83,0.00,,---,0.00,VWS V14.00,2013-03-11 05:59:00,
2013-03-11 02:00:00,34.9,30.3,30.27,WSW,237,0.0,0.0,83,0.00,,---,0.00,VWS V14.00,2013-03-11 06:00:00,
2013-03-11 02:04:00,34.9,30.3,30.27,WSW,237,0.0,1.0,83,0.00,,---,0.00,VWS V14.00,2013-03-11 06:04:00,
2013-03-11 02:05:00,34.9,30.3,30.27,WSW,237,0.0,1.0,83,0.00,,---,0.00,VWS V14.00,2013-03-11 06:05:00,
2013-03-11 02:09:00,34.7,30.1,30.27,WSW,237,0.0,1.0,83,0.00,,---,0.00,VWS V14.00,2013-03-11 06:09:00,
2013-03-11 02:10:00,34.7,30.1,30.27,WSW,237,0.0,1.0,83,0.00,,---,0.00,VWS V14.00,2013-03-11 06:10:00,
2013-03-11 02:14:00,34.7,30.1,30.26,WSW,237,0.0,2.0,83,0.00,,---,0.00,VWS V14.00,2013-03-11 06:14:00,
2013-03-11 02:15:00,34.7,30.1,30.26,WSW,237,1.0,1.0,83,0.00,,---,0.00,VWS V14.00,2013-03-11 06:15:00,
2013-03-11 02:16:00,34.7,30.1,30.26,WSW,237,0.0,1.0,83,0.00,,---,0.00,VWS V14.00,2013-03-11 06:16:00,
2013-03-11 02:19:00,34.7,30.1,30.26,WSW,237,0.0,1.0,83,0.00,,---,0.00,VWS V14.00,2013-03-11 06:19:00,
2013-03-11 02:20:00,34.7,30.1,30.26,WSW,237,1.0,1.0,83,0.00,,---,0.00,VWS V14.00,2013-03-11 06:20:00,
2013-03-11 02:21:00,34.7,30.1,30.26,WSW,237,1.0,2.0,83,0.00,,---,0.00,VWS V14.00,2013-03-11 06:21:00,
2013-03-11 02:22:00,34.7,30.1,30.26,WSW,237,0.0,2.0,83,0.00,,---,0.00,VWS V14.00,2013-03-11 06:22:00,
2013-03-11 02:24:00,34.7,30.1,30.26,WSW,237,0.0,2.0,83,0.00,,---,0.00,VWS V14.00,2013-03-11 06:24:00,
2013-03-11 02:26:00,34.7,30.1,30.26,WSW,237,0.0,3.0,83,0.00,,---,0.00,VWS V14.00,2013-03-11 06:26:00,
2013-03-11 02:27:00,34.7,30.1,30.26,WSW,237,0.0,3.0,83,0.00,,---,0.00,VWS V14.00,2013-03-11 06:27:00,
2013-03-11 02:29:00,34.7,30.1,30.26,WSW,237,0.0,3.0,83,0.00,,---,0.00,VWS V14.00,2013-03-11 06:29:00,
2013-03-11 02:30:00,34.9,30.3,30.21,South,186,2.0,4.0,83,0.00,,---,0.00,VWS V14.00,2013-03-11 06:30:00,
2013-03-11 02:31:00,34.7,30.1,30.26,WSW,237,2.0,3.0,83,0.00,,---,0.00,VWS V14.00,2013-03-11 06:31:00,
2013-03-11 02:32:00,34.7,30.1,30.26,SW,230,2.0,5.0,83,0.00,,---,0.00,VWS V14.00,2013-03-11 06:32:00,
2013-03-11 02:34:00,34.9,30.3,30.26,SW,230,0.0,5.0,83,0.00,,---,0.00,VWS V14.00,2013-03-11 06:34:00,
2013-03-11 02:37:00,34.9,30.3,30.26,SW,231,2.0,5.0,83,0.00,,---,0.00,VWS V14.00,2013-03-11 06:37:00,
2013-03-11 02:39:00,34.9,30.3,30.26,SW,231,1.0,5.0,83,0.00,,---,0.00,VWS V14.00,2013-03-11 06:39:00,
2013-03-11 02:42:00,34.9,30.3,30.26,SW,231,0.0,5.0,83,0.00,,---,0.00,VWS V14.00,2013-03-11 06:42:00,
2013-03-11 02:44:00,34.9,30.3,30.26,SW,231,0.0,1.0,83,0.00,,---,0.00,VWS V14.00,2013-03-11 06:44:00,
2013-03-11 02:45:00,34.9,30.3,30.21,SW,214,6.0,9.0,83,0.00,,---,0.00,VWS V14.00,2013-03-11 06:45:00,
2013-03-11 02:47:00,35.0,30.4,30.26,SW,231,1.0,2.0,83,0.00,,---,0.00,VWS V14.00,2013-03-11 06:47:00,
2013-03-11 02:49:00,35.0,30.4,30.26,SW,231,0.0,3.0,83,0.00,,---,0.00,VWS V14.00,2013-03-11 06:49:00,
2013-03-11 02:52:00,35.0,30.4,30.26,SW,231,1.0,4.0,83,0.00,,---,0.00,VWS V14.00,2013-03-11 06:52:00,
2013-03-11 02:53:00,35.0,30.4,30.26,SW,231,0.0,4.0,83,0.00,,---,0.00,VWS V14.00,2013-03-11 06:53:00,
2013-03-11 02:55:00,35.0,30.4,30.26,SW,231,0.0,4.0,83,0.00,,---,0.00,VWS V14.00,2013-03-11 06:55:00,
2013-03-11 02:57:00,35.0,30.4,30.26,SW,231,0.0,4.0,83,0.00,,---,0.00,VWS V14.00,2013-03-11 06:57:00,
2013-03-11 02:58:00,35.0,30.4,30.26,SW,231,0.0,4.0,83,0.00,,---,0.00,VWS V14.00,2013-03-11 06:58:00,
2013-03-11 03:00:00,35.0,30.4,30.25,SSW,199,4.0,5.0,83,0.00,,---,0.00,VWS V14.00,2013-03-11 07:00:00,
2013-03-11 03:02:00,35.0,30.4,30.25,SW,214,3.0,5.0,83,0.00,,---,0.00,VWS V14.00,2013-03-11 07:02:00,
2013-03-11 03:03:00,35.0,30.4,30.25,SW,214,0.0,5.0,83,0.00,,---,0.00,VWS V14.00,2013-03-11 07:03:00,
2013-03-11 03:05:00,35.0,30.4,30.25,SW,214,1.0,5.0,83,0.00,,---,0.00,VWS V14.00,2013-03-11 07:05:00,
2013-03-11 03:07:00,35.0,30.4,30.25,SW,214,0.0,5.0,83,0.00,,---,0.00,VWS V14.00,2013-03-11 07:07:00,
2013-03-11 03:08:00,35.0,30.4,30.25,SW,214,0.0,5.0,83,0.00,,---,0.00,VWS V14.00,2013-03-11 07:08:00,
2013-03-11 03:10:00,35.0,30.4,30.25,SSE,162,0.0,5.0,83,0.00,,---,0.00,VWS V14.00,2013-03-11 07:10:00,
2013-03-11 03:12:00,34.9,30.3,30.25,South,188,4.0,5.0,83,0.00,,---,0.00,VWS V14.00,2013-03-11 07:12:00,
2013-03-11 03:13:00,34.9,30.3,30.25,South,188,2.0,5.0,83,0.00,,---,0.00,VWS V14.00,2013-03-11 07:13:00,
2013-03-11 03:14:00,34.9,30.3,30.23,South,188,1.0,5.0,83,0.00,,---,0.00,VWS V14.00,2013-03-11 07:14:00,
2013-03-11 03:15:00,34.9,30.3,30.23,South,185,1.0,3.0,83,0.00,,---,0.00,VWS V14.00,2013-03-11 07:15:00,
2013-03-11 03:18:00,34.9,30.3,30.23,SSW,195,1.0,4.0,83,0.00,,---,0.00,VWS V14.00,2013-03-11 07:18:00,
2013-03-11 03:19:00,34.9,30.3,30.23,SSW,195,2.0,4.0,83,0.00,,---,0.00,VWS V14.00,2013-03-11 07:19:00,
2013-03-11 03:20:00,34.9,30.3,30.23,SSW,195,0.0,4.0,83,0.00,,---,0.00,VWS V14.00,2013-03-11 07:20:00,
2013-03-11 03:23:00,34.9,30.3,30.23,SSW,195,0.0,4.0,83,0.00,,---,0.00,VWS V14.00,2013-03-11 07:23:00,
2013-03-11 03:24:00,34.9,30.3,30.23,SSW,195,0.0,4.0,83,0.00,,---,0.00,VWS V14.00,2013-03-11 07:24:00,
2013-03-11 03:25:00,34.9,30.3,30.23,SSW,195,1.0,4.0,83,0.00,,---,0.00,VWS V14.00,2013-03-11 07:25:00,
2013-03-11 03:28:00,34.9,30.3,30.23,SSE,164,2.0,4.0,83,0.00,,---,0.00,VWS V14.00,2013-03-11 07:28:00,
2013-03-11 03:29:00,34.9,30.3,30.21,South,186,0.0,4.0,83,0.00,,---,0.00,VWS V14.00,2013-03-11 07:29:00,
2013-03-11 03:30:00,34.9,30.3,30.21,South,186,1.0,2.0,83,0.00,,---,0.00,VWS V14.00,2013-03-11 07:30:00,
2013-03-11 03:33:00,34.7,30.1,30.21,South,184,0.0,2.0,83,0.00,,---,0.00,VWS V14.00,2013-03-11 07:33:00,
2013-03-11 03:34:00,34.7,30.1,30.21,SW,217,3.0,9.0,83,0.00,,---,0.00,VWS V14.00,2013-03-11 07:34:00,
2013-03-11 03:35:00,34.7,30.1,30.21,South,185,1.0,9.0,83,0.00,,---,0.00,VWS V14.00,2013-03-11 07:35:00,
2013-03-11 03:38:00,34.9,30.3,30.21,SW,218,2.0,9.0,83,0.00,,---,0.00,VWS V14.00,2013-03-11 07:38:00,
2013-03-11 03:39:00,34.7,30.1,30.21,West,270,2.0,9.0,83,0.00,,---,0.00,VWS V14.00,2013-03-11 07:39:00,
2013-03-11 03:40:00,34.9,30.3,30.21,West,270,1.0,9.0,83,0.00,,---,0.00,VWS V14.00,2013-03-11 07:40:00,
2013-03-11 03:43:00,34.9,30.3,30.21,West,269,1.0,9.0,83,0.00,,---,0.00,VWS V14.00,2013-03-11 07:43:00,
2013-03-11 03:44:00,34.9,30.3,30.21,SW,231,3.0,6.0,83,0.00,,---,0.00,VWS V14.00,2013-03-11 07:44:00,
2013-03-11 03:45:00,35.2,30.6,30.22,SSW,197,0.0,7.0,83,0.00,,---,0.00,VWS V14.00,2013-03-11 07:45:00,
2013-03-11 03:46:00,34.9,30.3,30.21,SW,227,3.0,6.0,83,0.00,,---,0.00,VWS V14.00,2013-03-11 07:46:00,
2013-03-11 03:48:00,34.9,30.3,30.21,SW,232,2.0,7.0,83,0.00,,---,0.00,VWS V14.00,2013-03-11 07:48:00,
2013-03-11 03:49:00,34.9,30.3,30.21,SSW,207,1.0,7.0,83,0.00,,---,0.00,VWS V14.00,2013-03-11 07:49:00,
2013-03-11 03:51:00,34.9,30.3,30.21,SSW,212,0.0,7.0,83,0.00,,---,0.00,VWS V14.00,2013-03-11 07:51:00,
2013-03-11 03:53:00,34.9,30.3,30.21,West,266,4.0,7.0,83,0.00,,---,0.00,VWS V14.00,2013-03-11 07:53:00,
2013-03-11 03:54:00,34.9,30.3,30.21,South,174,4.0,7.0,83,0.00,,---,0.00,VWS V14.00,2013-03-11 07:54:00,
2013-03-11 03:56:00,34.9,30.3,30.21,SW,227,0.0,7.0,83,0.00,,---,0.00,VWS V14.00,2013-03-11 07:56:00,
2013-03-11 03:58:00,34.9,30.3,30.22,SW,229,0.0,7.0,83,0.00,,---,0.00,VWS V14.00,2013-03-11 07:58:00,
2013-03-11 03:59:00,34.9,30.3,30.22,SW,229,2.0,7.0,83,0.00,,---,0.00,VWS V14.00,2013-03-11 07:59:00,
2013-03-11 04:00:00,34.9,30.3,30.21,WSW,254,0.0,9.0,83,0.00,,---,0.00,VWS V14.00,2013-03-11 08:00:00,
2013-03-11 04:01:00,34.9,30.3,30.22,WSW,243,4.0,4.0,83,0.00,,---,0.00,VWS V14.00,2013-03-11 08:01:00,
2013-03-11 04:04:00,34.9,30.3,30.22,SW,229,1.0,4.0,83,0.00,,---,0.00,VWS V14.00,2013-03-11 08:04:00,
2013-03-11 04:07:00,34.9,30.3,30.22,SW,221,4.0,9.0,83,0.00,,---,0.00,VWS V14.00,2013-03-11 08:07:00,
2013-03-11 04:09:00,34.9,30.3,30.22,WSW,238,2.0,9.0,83,0.00,,---,0.00,VWS V14.00,2013-03-11 08:09:00,
2013-03-11 04:12:00,34.9,30.3,30.22,WSW,238,7.0,9.0,83,0.00,,---,0.00,VWS V14.00,2013-03-11 08:12:00,
2013-03-11 04:14:00,34.9,30.3,30.22,SW,217,6.0,9.0,83,0.00,,---,0.00,VWS V14.00,2013-03-11 08:14:00,
2013-03-11 04:15:00,34.9,30.3,30.22,SW,214,8.0,10.0,83,0.00,,---,0.00,VWS V14.00,2013-03-11 08:15:00,
2013-03-11 04:17:00,34.9,30.3,30.22,SW,236,0.0,11.0,83,0.00,,---,0.00,VWS V14.00,2013-03-11 08:17:00,
2013-03-11 04:19:00,35.0,30.4,30.22,West,269,4.0,11.0,83,0.00,,---,0.00,VWS V14.00,2013-03-11 08:19:00,
2013-03-11 04:20:00,35.0,30.4,30.22,SW,224,3.0,11.0,83,0.00,,---,0.00,VWS V14.00,2013-03-11 08:20:00,
2013-03-11 04:22:00,35.0,30.4,30.22,WSW,250,5.0,11.0,83,0.00,,---,0.00,VWS V14.00,2013-03-11 08:22:00,
2013-03-11 04:24:00,35.0,30.4,30.22,SW,232,4.0,11.0,83,0.00,,---,0.00,VWS V14.00,2013-03-11 08:24:00,
2013-03-11 04:25:00,35.0,30.4,30.22,SSW,207,2.0,11.0,83,0.00,,---,0.00,VWS V14.00,2013-03-11 08:25:00,
2013-03-11 04:27:00,35.0,30.4,30.22,South,184,3.0,11.0,83,0.00,,---,0.00,VWS V14.00,2013-03-11 08:27:00,
2013-03-11 04:29:00,35.0,30.4,30.22,SSW,207,5.0,5.0,83,0.00,,---,0.00,VWS V14.00,2013-03-11 08:29:00,
2013-03-11 04:30:00,35.2,30.6,30.22,SSW,207,1.0,5.0,83,0.00,,---,0.00,VWS V14.00,2013-03-11 08:30:00,
2013-03-11 04:32:00,35.2,30.6,30.22,SE,140,1.0,6.0,83,0.00,,---,0.00,VWS V14.00,2013-03-11 08:32:00,
2013-03-11 04:34:00,35.2,30.6,30.22,SSW,205,4.0,6.0,83,0.00,,---,0.00,VWS V14.00,2013-03-11 08:34:00,
2013-03-11 04:35:00,35.2,30.6,30.22,WSW,245,4.0,6.0,83,0.00,,---,0.00,VWS V14.00,2013-03-11 08:35:00,
2013-03-11 04:37:00,35.0,30.4,30.22,South,178,1.0,7.0,83,0.00,,---,0.00,VWS V14.00,2013-03-11 08:37:00,
2013-03-11 04:39:00,35.2,30.6,30.22,South,178,0.0,7.0,83,0.00,,---,0.00,VWS V14.00,2013-03-11 08:39:00,
2013-03-11 04:40:00,35.2,30.6,30.22,South,177,0.0,7.0,83,0.00,,---,0.00,VWS V14.00,2013-03-11 08:40:00,
2013-03-11 04:41:00,35.2,30.6,30.22,SSW,197,0.0,7.0,83,0.00,,---,0.00,VWS V14.00,2013-03-11 08:41:00,
2013-03-11 04:42:00,35.2,30.6,30.22,SSW,197,0.0,7.0,83,0.00,,---,0.00,VWS V14.00,2013-03-11 08:42:00,
2013-03-11 04:44:00,35.2,30.6,30.22,SSW,197,0.0,2.0,83,0.00,,---,0.00,VWS V14.00,2013-03-11 08:44:00,
2013-03-11 04:45:00,35.2,30.6,30.22,SSW,197,0.0,2.0,83,0.00,,---,0.00,VWS V14.00,2013-03-11 08:45:00,
2013-03-11 04:46:00,35.2,30.6,30.22,SW,228,0.0,9.0,83,0.00,,---,0.00,VWS V14.00,2013-03-11 08:46:00,
2013-03-11 04:47:00,35.2,30.6,30.22,WSW,238,1.0,9.0,83,0.00,,---,0.00,VWS V14.00,2013-03-11 08:47:00,
2013-03-11 04:49:00,35.0,30.4,30.22,SSW,213,0.0,9.0,83,0.00,,---,0.00,VWS V14.00,2013-03-11 08:49:00,
2013-03-11 04:50:00,35.0,30.4,30.22,SSW,213,0.0,9.0,83,0.00,,---,0.00,VWS V14.00,2013-03-11 08:50:00,
2013-03-11 04:52:00,35.0,30.4,30.22,SSW,213,2.0,9.0,83,0.00,,---,0.00,VWS V14.00,2013-03-11 08:52:00,
2013-03-11 04:55:00,34.9,30.3,30.22,SSW,212,2.0,9.0,83,0.00,,---,0.00,VWS V14.00,2013-03-11 08:55:00,
2013-03-11 04:57:00,34.9,30.3,30.22,SW,226,2.0,9.0,83,0.00,,---,0.00,VWS V14.00,2013-03-11 08:57:00,
2013-03-11 04:58:00,34.9,30.3,30.22,SSE,162,1.0,9.0,83,0.00,,---,0.00,VWS V14.00,2013-03-11 08:58:00,
2013-03-11 05:00:00,34.9,30.3,30.21,WSW,240,2.0,2.0,83,0.00,,---,0.00,VWS V14.00,2013-03-11 09:00:00,
2013-03-11 05:02:00,34.9,30.3,30.21,SSW,193,1.0,6.0,83,0.00,,---,0.00,VWS V14.00,2013-03-11 09:02:00,
2013-03-11 05:03:00,34.9,30.3,30.21,South,183,4.0,6.0,83,0.00,,---,0.00,VWS V14.00,2013-03-11 09:03:00,
2013-03-11 05:05:00,34.9,30.3,30.21,SSW,205,4.0,7.0,83,0.00,,---,0.00,VWS V14.00,2013-03-11 09:05:00,
2013-03-11 05:07:00,34.9,30.3,30.21,SSW,198,1.0,11.0,83,0.00,,---,0.00,VWS V14.00,2013-03-11 09:07:00,
2013-03-11 05:08:00,34.9,30.3,30.21,WSW,241,0.0,11.0,83,0.00,,---,0.00,VWS V14.00,2013-03-11 09:08:00,
2013-03-11 05:10:00,34.9,30.3,30.21,WSW,240,1.0,11.0,83,0.00,,---,0.00,VWS V14.00,2013-03-11 09:10:00,
2013-03-11 05:12:00,34.7,30.1,30.21,WSW,240,0.0,11.0,83,0.00,,---,0.00,VWS V14.00,2013-03-11 09:12:00,
2013-03-11 05:13:00,34.7,30.1,30.21,SSE,159,0.0,11.0,83,0.00,,---,0.00,VWS V14.00,2013-03-11 09:13:00,
2013-03-11 05:15:00,34.7,30.1,30.21,SSE,160,0.0,3.0,83,0.00,,---,0.00,VWS V14.00,2013-03-11 09:15:00,
2013-03-11 05:17:00,34.7,30.1,30.21,SSE,160,0.0,3.0,83,0.00,,---,0.00,VWS V14.00,2013-03-11 09:17:00,
2013-03-11 05:18:00,34.7,30.1,30.21,SSE,162,0.0,3.0,83,0.00,,---,0.00,VWS V14.00,2013-03-11 09:18:00,
2013-03-11 05:20:00,34.7,30.1,30.21,SSE,162,0.0,3.0,83,0.00,,---,0.00,VWS V14.00,2013-03-11 09:20:00,
2013-03-11 05:21:00,34.7,30.1,30.21,SSE,162,1.0,3.0,83,0.00,,---,0.00,VWS V14.00,2013-03-11 09:21:00,
2013-03-11 05:22:00,34.7,30.1,30.21,SSW,205,0.0,4.0,83,0.00,,---,0.00,VWS V14.00,2013-03-11 09:22:00,
2013-03-11 05:23:00,34.7,30.1,30.21,SSW,205,0.0,4.0,83,0.00,,---,0.00,VWS V14.00,2013-03-11 09:23:00,
2013-03-11 05:25:00,34.6,30.0,30.21,SSW,205,0.0,4.0,83,0.00,,---,0.00,VWS V14.00,2013-03-11 09:25:00,
2013-03-11 05:26:00,34.6,30.0,30.21,SSE,147,2.0,4.0,83,0.00,,---,0.00,VWS V14.00,2013-03-11 09:26:00,
2013-03-11 05:27:00,34.6,30.0,30.21,SSE,151,2.0,4.0,83,0.00,,---,0.00,VWS V14.00,2013-03-11 09:27:00,
2013-03-11 05:28:00,34.6,30.0,30.19,South,186,2.0,6.0,83,0.00,,---,0.00,VWS V14.00,2013-03-11 09:28:00,
2013-03-11 05:30:00,34.6,30.0,30.21,SW,234,2.0,9.0,83,0.00,,---,0.00,VWS V14.00,2013-03-11 09:30:00,
2013-03-11 05:31:00,34.6,30.0,30.19,SSW,210,3.0,7.0,83,0.00,,---,0.00,VWS V14.00,2013-03-11 09:31:00,
2013-03-11 05:32:00,34.6,30.0,30.19,SW,221,1.0,7.0,83,0.00,,---,0.00,VWS V14.00,2013-03-11 09:32:00,
2013-03-11 05:33:00,34.6,30.0,30.19,SW,221,2.0,7.0,83,0.00,,---,0.00,VWS V14.00,2013-03-11 09:33:00,
2013-03-11 05:36:00,34.6,30.0,30.19,SW,219,0.0,7.0,83,0.00,,---,0.00,VWS V14.00,2013-03-11 09:36:00,
2013-03-11 05:37:00,34.6,30.0,30.19,SW,219,1.0,7.0,83,0.00,,---,0.00,VWS V14.00,2013-03-11 09:37:00,
2013-03-11 05:38:00,34.4,29.8,30.19,SW,219,2.0,7.0,83,0.00,,---,0.00,VWS V14.00,2013-03-11 09:38:00,
2013-03-11 05:39:00,34.4,29.8,30.19,WSW,237,3.0,7.0,83,0.00,,---,0.00,VWS V14.00,2013-03-11 09:39:00,
2013-03-11 05:41:00,34.4,29.8,30.19,SSW,201,0.0,7.0,83,0.00,,---,0.00,VWS V14.00,2013-03-11 09:41:00,
2013-03-11 05:42:00,34.4,29.8,30.19,SSW,201,0.0,7.0,83,0.00,,---,0.00,VWS V14.00,2013-03-11 09:42:00,
2013-03-11 05:43:00,34.4,29.8,30.19,SSW,201,1.0,7.0,83,0.00,,---,0.00,VWS V14.00,2013-03-11 09:43:00,
2013-03-11 05:44:00,34.4,29.8,30.19,SSW,203,3.0,7.0,83,0.00,,---,0.00,VWS V14.00,2013-03-11 09:44:00,
2013-03-11 05:45:00,34.9,30.3,30.21,SW,228,2.0,7.0,83,0.00,,---,0.00,VWS V14.00,2013-03-11 09:45:00,
2013-03-11 05:46:00,34.4,29.8,30.19,South,172,1.0,3.0,83,0.00,,---,0.00,VWS V14.00,2013-03-11 09:46:00,
2013-03-11 05:47:00,34.4,29.8,30.19,South,172,1.0,3.0,83,0.00,,---,0.00,VWS V14.00,2013-03-11 09:47:00,
2013-03-11 05:48:00,34.4,29.8,30.19,South,174,1.0,3.0,83,0.00,,---,0.00,VWS V14.00,2013-03-11 09:48:00,
2013-03-11 05:49:00,34.4,29.8,30.19,South,173,2.0,3.0,83,0.00,,---,0.00,VWS V14.00,2013-03-11 09:49:00,
2013-03-11 05:52:00,34.6,30.0,30.19,SW,226,1.0,4.0,83,0.00,,---,0.00,VWS V14.00,2013-03-11 09:52:00,
2013-03-11 05:53:00,34.4,29.8,30.19,SW,226,1.0,4.0,83,0.00,,---,0.00,VWS V14.00,2013-03-11 09:53:00,
2013-03-11 05:54:00,34.4,29.8,30.19,SSW,208,1.0,4.0,83,0.00,,---,0.00,VWS V14.00,2013-03-11 09:54:00,
2013-03-11 05:57:00,34.6,30.0,30.19,SSW,209,0.0,4.0,83,0.00,,---,0.00,VWS V14.00,2013-03-11 09:57:00,
2013-03-11 05:58:00,34.4,29.8,30.19,SSW,209,1.0,4.0,83,0.00,,---,0.00,VWS V14.00,2013-03-11 09:58:00,
2013-03-11 05:59:00,34.4,29.8,30.19,SSW,208,1.0,4.0,83,0.00,,---,0.00,VWS V14.00,2013-03-11 09:59:00,
2013-03-11 06:00:00,34.9,30.3,30.21,SW,220,2.0,7.0,83,0.00,,---,0.00,VWS V14.00,2013-03-11 10:00:00,
2013-03-11 06:02:00,34.4,29.8,30.19,SSW,209,2.0,4.0,83,0.00,,---,0.00,VWS V14.00,2013-03-11 10:02:00,
2013-03-11 06:03:00,34.4,29.8,30.19,SSW,203,3.0,4.0,83,0.00,,---,0.00,VWS V14.00,2013-03-11 10:03:00,
2013-03-11 06:04:00,34.4,29.8,30.19,SSW,203,0.0,4.0,83,0.00,,---,0.00,VWS V14.00,2013-03-11 10:04:00,
2013-03-11 06:07:00,34.4,29.8,30.19,WSW,241,1.0,5.0,83,0.00,,---,0.00,VWS V14.00,2013-03-11 10:07:00,
2013-03-11 06:09:00,34.4,29.8,30.19,SW,236,2.0,5.0,83,0.00,,---,0.00,VWS V14.00,2013-03-11 10:09:00,
2013-03-11 06:12:00,34.6,30.0,30.19,WSW,257,2.0,5.0,83,0.00,,---,0.00,VWS V14.00,2013-03-11 10:12:00,
2013-03-11 06:14:00,34.6,30.0,30.20,WSW,257,0.0,5.0,83,0.00,,---,0.00,VWS V14.00,2013-03-11 10:14:00,
2013-03-11 06:15:00,34.7,30.1,30.21,SW,220,2.0,11.0,83,0.00,,---,0.00,VWS V14.00,2013-03-11 10:15:00,
2013-03-11 06:17:00,34.6,30.0,30.20,SW,227,2.0,3.0,83,0.00,,---,0.00,VWS V14.00,2013-03-11 10:17:00,
2013-03-11 06:18:00,34.6,30.0,30.20,SW,227,0.0,3.0,83,0.00,,---,0.00,VWS V14.00,2013-03-11 10:18:00,
2013-03-11 06:19:00,34.6,30.0,30.20,SW,227,0.0,3.0,83,0.00,,---,0.00,VWS V14.00,2013-03-11 10:19:00,
2013-03-11 06:23:00,34.6,30.0,30.20,SW,231,0.0,3.0,83,0.00,,---,0.00,VWS V14.00,2013-03-11 10:23:00,
2013-03-11 06:24:00,34.6,30.0,30.20,West,275,4.0,4.0,83,0.00,,---,0.00,VWS V14.00,2013-03-11 10:24:00,
2013-03-11 06:25:00,34.6,30.0,30.20,WSW,247,3.0,4.0,83,0.00,,---,0.00,VWS V14.00,2013-03-11 10:25:00,
2013-03-11 06:28:00,34.6,30.0,30.20,SW,226,7.0,9.0,83,0.00,,---,0.00,VWS V14.00,2013-03-11 10:28:00,
2013-03-11 06:29:00,34.6,30.0,30.21,WSW,255,4.0,4.0,83,0.00,,---,0.00,VWS V14.00,2013-03-11 10:29:00,
2013-03-11 06:30:00,34.7,30.1,30.21,West,278,3.0,4.0,83,0.00,,---,0.00,VWS V14.00,2013-03-11 10:30:00,
2013-03-11 06:33:00,34.7,30.1,30.21,SSW,208,5.0,5.0,83,0.00,,---,0.00,VWS V14.00,2013-03-11 10:33:00,
2013-03-11 06:34:00,34.7,30.1,30.21,WSW,243,4.0,5.0,83,0.00,,---,0.00,VWS V14.00,2013-03-11 10:34:00,
2013-03-11 06:35:00,34.7,30.1,30.21,SW,228,3.0,7.0,83,0.00,,---,0.00,VWS V14.00,2013-03-11 10:35:00,
2013-03-11 06:38:00,34.7,30.1,30.21,SSW,196,5.0,7.0,83,0.00,,---,0.00,VWS V14.00,2013-03-11 10:38:00,
2013-03-11 06:39:00,34.7,30.1,30.21,SSW,195,3.0,7.0,83,0.00,,---,0.00,VWS V14.00,2013-03-11 10:39:00,
2013-03-11 06:40:00,34.7,30.1,30.21,SW,217,3.0,7.0,83,0.00,,---,0.00,VWS V14.00,2013-03-11 10:40:00,
2013-03-11 06:43:00,34.9,30.3,30.21,South,191,0.0,7.0,83,0.00,,---,0.00,VWS V14.00,2013-03-11 10:43:00,
2013-03-11 06:44:00,34.9,30.3,30.21,SW,228,3.0,7.0,83,0.00,,---,0.00,VWS V14.00,2013-03-11 10:44:00,
2013-03-11 06:45:00,34.9,30.3,30.21,SW,229,0.0,2.0,83,0.00,,---,0.00,VWS V14.00,2013-03-11 10:45:00,
2013-03-11 06:49:00,34.9,30.3,30.21,SSW,197,4.0,7.0,83,0.00,,---,0.00,VWS V14.00,2013-03-11 10:49:00,
2013-03-11 06:50:00,34.9,30.3,30.21,SSW,196,3.0,7.0,83,0.00,,---,0.00,VWS V14.00,2013-03-11 10:50:00,
2013-03-11 06:54:00,34.9,30.3,30.21,SW,229,1.0,7.0,83,0.00,,---,0.00,VWS V14.00,2013-03-11 10:54:00,
2013-03-11 06:55:00,34.9,30.3,30.21,SW,229,2.0,7.0,83,0.00,,---,0.00,VWS V14.00,2013-03-11 10:55:00,
2013-03-11 06:59:00,34.9,30.3,30.21,SW,220,2.0,7.0,83,0.00,,---,0.00,VWS V14.00,2013-03-11 10:59:00,
2013-03-11 07:00:00,34.9,30.3,30.21,SW,235,0.0,4.0,83,0.00,,---,0.00,VWS V14.00,2013-03-11 11:00:00,
2013-03-11 07:04:00,34.7,30.1,30.21,SSW,205,4.0,4.0,83,0.00,,---,0.00,VWS V14.00,2013-03-11 11:04:00,
2013-03-11 07:05:00,34.7,30.1,30.21,SW,226,3.0,5.0,83,0.00,,---,0.00,VWS V14.00,2013-03-11 11:05:00,
2013-03-11 07:09:00,34.7,30.1,30.21,SSE,162,1.0,6.0,83,0.00,,---,0.00,VWS V14.00,2013-03-11 11:09:00,
2013-03-11 07:10:00,34.7,30.1,30.21,West,264,3.0,6.0,83,0.00,,---,0.00,VWS V14.00,2013-03-11 11:10:00,
2013-03-11 07:14:00,34.7,30.1,30.21,SW,220,1.0,2.0,83,0.00,,---,0.00,VWS V14.00,2013-03-11 11:14:00,
2013-03-11 07:15:00,34.7,30.1,30.21,SW,220,1.0,2.0,83,0.00,,---,0.00,VWS V14.00,2013-03-11 11:15:00,
2013-03-11 07:19:00,34.7,30.1,30.21,SW,217,0.0,5.0,83,0.00,,---,0.00,VWS V14.00,2013-03-11 11:19:00,
2013-03-11 07:20:00,34.7,30.1,30.21,SW,217,0.0,5.0,83,0.00,,---,0.00,VWS V14.00,2013-03-11 11:20:00,
2013-03-11 07:25:00,34.7,30.1,30.21,SW,235,0.0,5.0,83,0.00,,---,0.00,VWS V14.00,2013-03-11 11:25:00,
2013-03-11 07:26:00,34.7,30.1,30.21,South,186,2.0,5.0,83,0.00,,---,0.00,VWS V14.00,2013-03-11 11:26:00,
2013-03-11 07:30:00,34.7,30.1,30.20,South,191,3.0,3.0,83,0.00,,---,0.00,VWS V14.00,2013-03-11 11:30:00,
2013-03-11 07:31:00,34.7,30.1,30.20,South,190,3.0,4.0,83,0.00,,---,0.00,VWS V14.00,2013-03-11 11:31:00,
2013-03-11 07:35:00,34.7,30.1,30.20,West,265,0.0,4.0,83,0.00,,---,0.00,VWS V14.00,2013-03-11 11:35:00,
2013-03-11 07:37:00,34.7,30.1,30.20,WSW,245,2.0,4.0,83,0.00,,---,0.00,VWS V14.00,2013-03-11 11:37:00,
2013-03-11 07:40:00,34.7,30.1,30.20,South,180,0.0,4.0,83,0.00,,---,0.00,VWS V14.00,2013-03-11 11:40:00,
2013-03-11 07:42:00,34.9,30.3,30.20,SW,216,1.0,4.0,83,0.00,,---,0.00,VWS V14.00,2013-03-11 11:42:00,
2013-03-11 07:45:00,34.9,30.3,30.20,SSE,155,0.0,1.0,83,0.00,,---,0.00,VWS V14.00,2013-03-11 11:45:00,
2013-03-11 07:47:00,34.9,30.0,30.20,SSW,202,3.0,7.0,82,0.00,,---,0.00,VWS V14.00,2013-03-11 11:47:00,
2013-03-11 07:50:00,34.9,30.0,30.20,SSW,194,1.0,7.0,82,0.00,,---,0.00,VWS V14.00,2013-03-11 11:50:00,
2013-03-11 07:51:00,34.9,30.0,30.20,South,187,0.0,7.0,82,0.00,,---,0.00,VWS V14.00,2013-03-11 11:51:00,
2013-03-11 07:52:00,34.9,30.0,30.20,South,187,1.0,7.0,82,0.00,,---,0.00,VWS V14.00,2013-03-11 11:52:00,
2013-03-11 07:55:00,34.9,30.0,30.20,South,188,0.0,7.0,82,0.00,,---,0.00,VWS V14.00,2013-03-11 11:55:00,
2013-03-11 07:56:00,34.9,30.0,30.20,South,188,2.0,7.0,82,0.00,,---,0.00,VWS V14.00,2013-03-11 11:56:00,
2013-03-11 07:57:00,34.9,30.0,30.20,South,188,0.0,7.0,82,0.00,,---,0.00,VWS V14.00,2013-03-11 11:57:00,
2013-03-11 07:58:00,34.9,30.0,30.20,WSW,240,2.0,7.0,82,0.00,,---,0.00,VWS V14.00,2013-03-11 11:58:00,
2013-03-11 08:00:00,34.9,30.0,30.21,SW,231,0.0,3.0,82,0.00,,---,0.00,VWS V14.00,2013-03-11 12:00:00,
2013-03-11 08:01:00,34.9,30.0,30.21,SSW,198,3.0,4.0,82,0.00,,---,0.00,VWS V14.00,2013-03-11 12:01:00,
2013-03-11 08:03:00,35.0,30.1,30.21,SSW,198,0.0,4.0,82,0.00,,---,0.00,VWS V14.00,2013-03-11 12:03:00,
2013-03-11 08:05:00,35.0,30.1,30.21,SSW,198,2.0,4.0,82,0.00,,---,0.00,VWS V14.00,2013-03-11 12:05:00,
2013-03-11 08:07:00,35.0,30.1,30.21,WSW,239,2.0,4.0,82,0.00,,---,0.00,VWS V14.00,2013-03-11 12:07:00,
2013-03-11 08:08:00,35.0,30.1,30.21,WSW,238,0.0,4.0,82,0.00,,---,0.00,VWS V14.00,2013-03-11 12:08:00,
2013-03-11 08:11:00,35.0,30.1,30.21,SW,224,2.0,4.0,82,0.00,,---,0.00,VWS V14.00,2013-03-11 12:11:00,
2013-03-11 08:12:00,35.0,30.1,30.21,WSW,249,0.0,4.0,82,0.00,,---,0.00,VWS V14.00,2013-03-11 12:12:00,
2013-03-11 08:13:00,35.0,30.1,30.21,South,174,3.0,6.0,82,0.00,,---,0.00,VWS V14.00,2013-03-11 12:13:00,
2013-03-11 08:15:00,37.2,30.7,30.20,WSW,245,7.0,12.0,77,0.00,,---,0.00,VWS V14.00,2013-03-11 12:15:00,
2013-03-11 08:16:00,35.2,30.3,30.21,SW,214,0.0,4.0,82,0.00,,---,0.00,VWS V14.00,2013-03-11 12:16:00,
2013-03-11 08:17:00,35.2,30.3,30.21,SW,214,1.0,4.0,82,0.00,,---,0.00,VWS V14.00,2013-03-11 12:17:00,
2013-03-11 08:18:00,35.2,30.3,30.21,SW,214,0.0,4.0,82,0.00,,---,0.00,VWS V14.00,2013-03-11 12:18:00,
2013-03-11 08:22:00,35.3,30.4,30.21,SSW,205,0.0,4.0,82,0.00,,---,0.00,VWS V14.00,2013-03-11 12:22:00,
2013-03-11 08:23:00,35.3,30.4,30.21,SSW,205,0.0,4.0,82,0.00,,---,0.00,VWS V14.00,2013-03-11 12:23:00,
2013-03-11 08:27:00,35.5,30.6,30.21,SSW,200,2.0,4.0,82,0.00,,---,0.00,VWS V14.00,2013-03-11 12:27:00,
2013-03-11 08:28:00,35.6,30.7,30.21,SW,225,3.0,5.0,82,0.00,,---,0.00,VWS V14.00,2013-03-11 12:28:00,
2013-03-11 08:30:00,38.0,31.1,30.20,SSW,195,0.0,10.0,76,0.00,,---,0.00,VWS V14.00,2013-03-11 12:30:00,
2013-03-11 08:32:00,35.8,30.9,30.21,WSW,247,3.0,3.0,82,0.00,,---,0.00,VWS V14.00,2013-03-11 12:32:00,
2013-03-11 08:33:00,35.8,30.5,30.21,WSW,239,3.0,6.0,81,0.00,,---,0.00,VWS V14.00,2013-03-11 12:33:00,
2013-03-11 08:37:00,35.8,30.5,30.21,SW,232,2.0,8.0,81,0.00,,---,0.00,VWS V14.00,2013-03-11 12:37:00,
2013-03-11 08:38:00,35.8,30.5,30.21,SW,232,0.0,8.0,81,0.00,,---,0.00,VWS V14.00,2013-03-11 12:38:00,
2013-03-11 08:39:00,35.8,30.5,30.21,SW,232,1.0,8.0,81,0.00,,---,0.00,VWS V14.00,2013-03-11 12:39:00,
2013-03-11 08:42:00,35.9,30.6,30.21,West,259,2.0,8.0,81,0.00,,---,0.00,VWS V14.00,2013-03-11 12:42:00,
2013-03-11 08:43:00,35.9,30.6,30.21,WSW,252,0.0,8.0,81,0.00,,---,0.00,VWS V14.00,2013-03-11 12:43:00,
2013-03-11 08:44:00,35.9,30.6,30.20,WSW,252,0.0,8.0,81,0.00,,---,0.00,VWS V14.00,2013-03-11 12:44:00,
2013-03-11 08:45:00,38.6,31.0,30.20,SSW,203,2.0,9.0,74,0.00,,---,0.00,VWS V14.00,2013-03-11 12:45:00,
2013-03-11 08:47:00,36.0,30.4,30.20,SSW,205,0.0,6.0,80,0.00,,---,0.00,VWS V14.00,2013-03-11 12:47:00,
2013-03-11 08:48:00,36.0,30.8,30.20,SSW,205,0.0,6.0,81,0.00,,---,0.00,VWS V14.00,2013-03-11 12:48:00,
2013-03-11 08:49:00,36.0,30.8,30.20,SSW,202,3.0,6.0,81,0.00,,---,0.00,VWS V14.00,2013-03-11 12:49:00,
2013-03-11 08:52:00,36.0,30.4,30.20,SSW,202,0.0,6.0,80,0.00,,---,0.00,VWS V14.00,2013-03-11 12:52:00,
2013-03-11 08:53:00,36.2,30.6,30.20,SSW,202,2.0,6.0,80,0.00,,---,0.00,VWS V14.00,2013-03-11 12:53:00,
2013-03-11 08:54:00,36.2,30.6,30.20,SSW,206,2.0,6.0,80,0.00,,---,0.00,VWS V14.00,2013-03-11 12:54:00,
2013-03-11 08:58:00,36.3,30.7,30.20,South,189,1.0,6.0,80,0.00,,---,0.00,VWS V14.00,2013-03-11 12:58:00,
2013-03-11 08:59:00,36.5,30.9,30.20,West,280,2.0,6.0,80,0.00,,---,0.00,VWS V14.00,2013-03-11 12:59:00,
2013-03-11 09:00:00,39.5,31.2,30.20,WSW,249,2.0,10.0,72,0.00,,---,0.00,VWS V14.00,2013-03-11 13:00:00,
2013-03-11 09:03:00,36.6,30.7,30.20,SSW,207,0.0,9.0,79,0.00,,---,0.00,VWS V14.00,2013-03-11 13:03:00,
2013-03-11 09:04:00,36.6,30.7,30.20,SSW,209,2.0,9.0,79,0.00,,---,0.00,VWS V14.00,2013-03-11 13:04:00,
2013-03-11 09:08:00,36.9,31.0,30.20,South,179,2.0,9.0,79,0.00,,---,0.00,VWS V14.00,2013-03-11 13:08:00,
2013-03-11 09:09:00,37.0,30.8,30.20,SSW,206,7.0,9.0,78,0.00,,---,0.00,VWS V14.00,2013-03-11 13:09:00,
2013-03-11 09:13:00,37.2,30.7,30.20,WSW,255,9.0,12.0,77,0.00,,---,0.00,VWS V14.00,2013-03-11 13:13:00,
2013-03-11 09:14:00,37.2,30.7,30.20,SSW,210,10.0,12.0,77,0.00,,---,0.00,VWS V14.00,2013-03-11 13:14:00,
2013-03-11 09:15:00,39.9,31.3,30.20,WSW,245,1.0,11.0,71,0.00,,---,0.00,VWS V14.00,2013-03-11 13:15:00,
2013-03-11 09:18:00,37.3,30.8,30.20,WSW,247,5.0,7.0,77,0.00,,---,0.00,VWS V14.00,2013-03-11 13:18:00,
2013-03-11 09:19:00,37.3,30.8,30.20,WSW,245,6.0,7.0,77,0.00,,---,0.00,VWS V14.00,2013-03-11 13:19:00,
2013-03-11 09:24:00,37.6,31.1,30.20,WSW,243,4.0,9.0,77,0.00,,---,0.00,VWS V14.00,2013-03-11 13:24:00,
2013-03-11 09:29:00,38.0,31.1,30.20,SSW,194,2.0,10.0,76,0.00,,---,0.00,VWS V14.00,2013-03-11 13:29:00,
2013-03-11 09:30:00,40.8,31.4,30.20,SW,230,5.0,10.0,69,0.00,,---,0.00,VWS V14.00,2013-03-11 13:30:00,
2013-03-11 09:34:00,38.2,31.0,30.20,SW,236,4.0,7.0,75,0.00,,---,0.00,VWS V14.00,2013-03-11 13:34:00,
2013-03-11 09:35:00,38.2,31.0,30.20,SSW,200,2.0,7.0,75,0.00,,---,0.00,VWS V14.00,2013-03-11 13:35:00,
2013-03-11 09:39:00,38.5,31.0,30.20,SSW,205,3.0,8.0,74,0.00,,---,0.00,VWS V14.00,2013-03-11 13:39:00,
2013-03-11 09:40:00,38.5,31.0,30.20,West,275,4.0,8.0,74,0.00,,---,0.00,VWS V14.00,2013-03-11 13:40:00,
2013-03-11 09:44:00,38.6,31.0,30.20,South,186,3.0,5.0,74,0.00,,---,0.00,VWS V14.00,2013-03-11 13:44:00,
2013-03-11 09:45:00,38.6,31.0,30.20,SW,214,5.0,5.0,74,0.00,,---,0.00,VWS V14.00,2013-03-11 13:45:00,
2013-03-11 09:50:00,38.8,31.2,30.20,WSW,253,6.0,10.0,74,0.00,,---,0.00,VWS V14.00,2013-03-11 13:50:00,
2013-03-11 09:55:00,39.2,31.3,30.20,South,169,4.0,10.0,73,0.00,,---,0.00,VWS V14.00,2013-03-11 13:55:00,
2013-03-11 09:56:00,39.2,31.3,30.20,SW,215,6.0,10.0,73,0.00,,---,0.00,VWS V14.00,2013-03-11 13:56:00,
2013-03-11 10:00:00,39.5,31.2,30.20,WSW,248,0.0,2.0,72,0.00,,---,0.00,VWS V14.00,2013-03-11 14:00:00,
2013-03-11 10:02:00,39.6,31.3,30.20,WSW,248,0.0,3.0,72,0.00,,---,0.00,VWS V14.00,2013-03-11 14:02:00,
2013-03-11 10:05:00,39.8,31.2,30.20,SSW,207,1.0,7.0,71,0.00,,---,0.00,VWS V14.00,2013-03-11 14:05:00,
2013-03-11 10:07:00,39.8,31.2,30.20,WSW,252,3.0,11.0,71,0.00,,---,0.00,VWS V14.00,2013-03-11 14:07:00,
2013-03-11 10:10:00,39.8,31.2,30.20,WNW,295,4.0,11.0,71,0.00,,---,0.00,VWS V14.00,2013-03-11 14:10:00,
2013-03-11 10:12:00,39.9,31.3,30.20,SW,235,6.0,11.0,71,0.00,,---,0.00,VWS V14.00,2013-03-11 14:12:00,
2013-03-11 10:15:00,39.9,31.3,30.20,WSW,246,2.0,2.0,71,0.00,,---,0.00,VWS V14.00,2013-03-11 14:15:00,
2013-03-11 10:17:00,40.2,31.6,30.20,SW,221,1.0,4.0,71,0.00,,---,0.00,VWS V14.00,2013-03-11 14:17:00,
2013-03-11 10:20:00,40.3,31.3,30.20,SSW,210,0.0,10.0,70,0.00,,---,0.00,VWS V14.00,2013-03-11 14:20:00,
2013-03-11 10:22:00,40.5,31.5,30.20,South,175,6.0,10.0,70,0.00,,---,0.00,VWS V14.00,2013-03-11 14:22:00,
2013-03-11 10:25:00,40.6,31.2,30.20,SW,236,4.0,10.0,69,0.00,,---,0.00,VWS V14.00,2013-03-11 14:25:00,
2013-03-11 10:27:00,40.8,31.4,30.20,West,270,4.0,10.0,69,0.00,,---,0.00,VWS V14.00,2013-03-11 14:27:00,
2013-03-11 10:30:00,40.8,31.1,30.20,WSW,248,5.0,7.0,68,0.00,,---,0.00,VWS V14.00,2013-03-11 14:30:00,
2013-03-11 10:31:00,40.8,31.1,30.20,SW,231,3.0,7.0,68,0.00,,---,0.00,VWS V14.00,2013-03-11 14:31:00,
2013-03-11 10:33:00,40.9,31.5,30.20,SW,219,1.0,8.0,69,0.00,,---,0.00,VWS V14.00,2013-03-11 14:33:00,
2013-03-11 10:35:00,41.1,31.7,30.20,West,269,6.0,8.0,69,0.00,,---,0.00,VWS V14.00,2013-03-11 14:35:00,
2013-03-11 10:36:00,41.1,31.7,30.20,West,264,4.0,8.0,69,0.00,,---,0.00,VWS V14.00,2013-03-11 14:36:00,
2013-03-11 10:38:00,41.1,31.4,30.20,WSW,246,6.0,9.0,68,0.00,,---,0.00,VWS V14.00,2013-03-11 14:38:00,
2013-03-11 10:40:00,41.1,31.4,30.20,South,188,2.0,9.0,68,0.00,,---,0.00,VWS V14.00,2013-03-11 14:40:00,
2013-03-11 10:41:00,41.1,31.4,30.20,South,187,2.0,9.0,68,0.00,,---,0.00,VWS V14.00,2013-03-11 14:41:00,
2013-03-11 10:43:00,41.2,31.5,30.20,SW,214,0.0,9.0,68,0.00,,---,0.00,VWS V14.00,2013-03-11 14:43:00,
2013-03-11 10:45:00,41.5,31.7,30.20,SSW,210,3.0,6.0,68,0.00,,---,0.00,VWS V14.00,2013-03-11 14:45:00,
2013-03-11 10:46:00,41.5,31.7,30.20,WSW,242,3.0,6.0,68,0.00,,---,0.00,VWS V14.00,2013-03-11 14:46:00,
2013-03-11 10:47:00,41.5,31.7,30.20,WSW,244,2.0,6.0,68,0.00,,---,0.00,VWS V14.00,2013-03-11 14:47:00,
2013-03-11 10:48:00,41.5,31.7,30.20,West,271,3.0,6.0,68,0.00,,---,0.00,VWS V14.00,2013-03-11 14:48:00,
2013-03-11 10:50:00,41.6,31.5,30.20,WSW,245,2.0,7.0,67,0.00,,---,0.00,VWS V14.00,2013-03-11 14:50:00,
2013-03-11 10:51:00,41.6,31.5,30.20,WSW,245,2.0,7.0,67,0.00,,---,0.00,VWS V14.00,2013-03-11 14:51:00,
2013-03-11 10:52:00,41.6,31.8,30.20,West,269,4.0,7.0,68,0.00,,---,0.00,VWS V14.00,2013-03-11 14:52:00,
2013-03-11 10:53:00,41.8,32.0,30.20,SW,233,1.0,7.0,68,0.00,,---,0.00,VWS V14.00,2013-03-11 14:53:00,
2013-03-11 10:56:00,41.9,32.1,30.20,West,261,2.0,7.0,68,0.00,,---,0.00,VWS V14.00,2013-03-11 14:56:00,
2013-03-11 10:57:00,41.9,32.1,30.20,West,268,2.0,7.0,68,0.00,,---,0.00,VWS V14.00,2013-03-11 14:57:00,
2013-03-11 10:58:00,42.1,32.0,30.19,West,267,0.0,7.0,67,0.00,,---,0.00,VWS V14.00,2013-03-11 14:58:00,
2013-03-11 11:00:00,45.4,31.9,30.19,SW,232,2.0,10.0,59,0.00,,---,0.00,VWS V14.00,2013-03-11 15:00:00,
2013-03-11 11:01:00,42.2,32.0,30.19,West,267,2.0,3.0,67,0.00,,---,0.00,VWS V14.00,2013-03-11 15:01:00,
2013-03-11 11:02:00,42.2,32.0,30.19,West,267,2.0,3.0,67,0.00,,---,0.00,VWS V14.00,2013-03-11 15:02:00,
2013-03-11 11:04:00,42.3,31.8,30.19,WSW,250,2.0,5.0,66,0.00,,---,0.00,VWS V14.00,2013-03-11 15:04:00,
2013-03-11 11:07:00,42.5,32.0,30.19,WNW,290,0.0,7.0,66,0.00,,---,0.00,VWS V14.00,2013-03-11 15:07:00,
2013-03-11 11:09:00,42.6,32.0,30.19,West,279,1.0,11.0,66,0.00,,---,0.00,VWS V14.00,2013-03-11 15:09:00,
2013-03-11 11:12:00,42.6,31.7,30.19,WSW,247,5.0,11.0,65,0.00,,---,0.00,VWS V14.00,2013-03-11 15:12:00,
2013-03-11 11:14:00,42.6,31.7,30.20,West,270,1.0,12.0,65,0.00,,---,0.00,VWS V14.00,2013-03-11 15:14:00,
2013-03-11 11:15:00,46.7,32.3,30.19,SW,233,0.0,9.0,57,0.00,,---,0.00,VWS V14.00,2013-03-11 15:15:00,
2013-03-11 11:17:00,42.8,31.9,30.20,SW,232,1.0,5.0,65,0.00,,---,0.00,VWS V14.00,2013-03-11 15:17:00,
2013-03-11 11:18:00,42.8,31.9,30.20,SSW,207,2.0,5.0,65,0.00,,---,0.00,VWS V14.00,2013-03-11 15:18:00,
2013-03-11 11:19:00,42.8,32.2,30.20,SW,231,6.0,7.0,66,0.00,,---,0.00,VWS V14.00,2013-03-11 15:19:00,
2013-03-11 11:22:00,42.8,31.9,30.20,West,277,3.0,9.0,65,0.00,,---,0.00,VWS V14.00,2013-03-11 15:22:00,
2013-03-11 11:23:00,42.8,31.9,30.20,SW,231,0.0,9.0,65,0.00,,---,0.00,VWS V14.00,2013-03-11 15:23:00,
2013-03-11 11:24:00,42.9,32.0,30.20,SSW,213,4.0,9.0,65,0.00,,---,0.00,VWS V14.00,2013-03-11 15:24:00,
2013-03-11 11:27:00,42.9,32.0,30.20,SSW,193,2.0,9.0,65,0.00,,---,0.00,VWS V14.00,2013-03-11 15:27:00,
2013-03-11 11:28:00,43.1,32.2,30.20,WNW,289,2.0,9.0,65,0.00,,---,0.00,VWS V14.00,2013-03-11 15:28:00,
2013-03-11 11:29:00,43.1,32.2,30.20,WSW,244,3.0,9.0,65,0.00,,---,0.00,VWS V14.00,2013-03-11 15:29:00,
2013-03-11 11:30:00,48.0,31.2,30.18,WSW,253,9.0,12.0,52,0.00,,---,0.00,VWS V14.00,2013-03-11 15:30:00,
2013-03-11 11:32:00,43.2,31.9,30.20,WSW,237,3.0,5.0,64,0.00,,---,0.00,VWS V14.00,2013-03-11 15:32:00,
2013-03-11 11:33:00,43.3,32.0,30.20,West,264,3.0,6.0,64,0.00,,---,0.00,VWS V14.00,2013-03-11 15:33:00,
2013-03-11 11:34:00,43.3,32.0,30.20,SW,219,4.0,6.0,64,0.00,,---,0.00,VWS V14.00,2013-03-11 15:34:00,
2013-03-11 11:37:00,43.6,32.2,30.20,SW,226,0.0,6.0,64,0.00,,---,0.00,VWS V14.00,2013-03-11 15:37:00,
2013-03-11 11:38:00,43.8,32.4,30.20,WSW,240,0.0,6.0,64,0.00,,---,0.00,VWS V14.00,2013-03-11 15:38:00,
2013-03-11 11:39:00,43.8,32.4,30.20,WSW,249,0.0,6.0,64,0.00,,---,0.00,VWS V14.00,2013-03-11 15:39:00,
2013-03-11 11:42:00,44.3,32.5,30.20,WSW,251,1.0,6.0,63,0.00,,---,0.00,VWS V14.00,2013-03-11 15:42:00,
2013-03-11 11:43:00,44.5,32.3,30.19,West,264,1.0,6.0,62,0.00,,---,0.00,VWS V14.00,2013-03-11 15:43:00,
2013-03-11 11:44:00,44.5,32.3,30.19,SSW,212,0.0,6.0,62,0.00,,---,0.00,VWS V14.00,2013-03-11 15:44:00,
2013-03-11 11:45:00,49.1,31.3,30.18,West,262,0.0,9.0,50,0.00,,---,0.00,VWS V14.00,2013-03-11 15:45:00,
2013-03-11 11:47:00,44.8,32.2,30.19,SSW,196,1.0,10.0,61,0.00,,---,0.00,VWS V14.00,2013-03-11 15:47:00,
2013-03-11 11:48:00,44.9,32.3,30.19,SW,220,2.0,10.0,61,0.00,,---,0.00,VWS V14.00,2013-03-11 15:48:00,
2013-03-11 11:49:00,44.9,32.3,30.19,SSW,213,3.0,10.0,61,0.00,,---,0.00,VWS V14.00,2013-03-11 15:49:00,
2013-03-11 11:50:00,45.1,32.1,30.19,West,272,4.0,10.0,60,0.00,,---,0.00,VWS V14.00,2013-03-11 15:50:00,
2013-03-11 11:52:00,45.2,32.2,30.19,SW,230,7.0,10.0,60,0.00,,---,0.00,VWS V14.00,2013-03-11 15:52:00,
2013-03-11 11:53:00,45.2,32.2,30.19,WSW,257,0.0,10.0,60,0.00,,---,0.00,VWS V14.00,2013-03-11 15:53:00,
2013-03-11 11:54:00,45.2,32.2,30.19,WSW,254,0.0,10.0,60,0.00,,---,0.00,VWS V14.00,2013-03-11 15:54:00,
2013-03-11 11:55:00,45.4,32.3,30.19,West,260,5.0,10.0,60,0.00,,---,0.00,VWS V14.00,2013-03-11 15:55:00,
2013-03-11 11:57:00,45.4,31.9,30.19,SSW,198,7.0,10.0,59,0.00,,---,0.00,VWS V14.00,2013-03-11 15:57:00,
2013-03-11 11:59:00,45.4,31.9,30.19,SW,233,0.0,10.0,59,0.00,,---,0.00,VWS V14.00,2013-03-11 15:59:00,
2013-03-11 12:00:00,45.5,32.0,30.19,South,179,3.0,4.0,59,0.00,,---,0.00,VWS V14.00,2013-03-11 16:00:00,
2013-03-11 12:02:00,45.7,32.2,30.19,SW,225,2.0,4.0,59,0.00,,---,0.00,VWS V14.00,2013-03-11 16:02:00,
2013-03-11 12:04:00,45.8,32.3,30.19,SW,227,4.0,6.0,59,0.00,,---,0.00,VWS V14.00,2013-03-11 16:04:00,
2013-03-11 12:05:00,45.8,32.3,30.19,SW,226,2.0,8.0,59,0.00,,---,0.00,VWS V14.00,2013-03-11 16:05:00,
2013-03-11 12:07:00,46.1,32.2,30.19,WSW,255,0.0,9.0,58,0.00,,---,0.00,VWS V14.00,2013-03-11 16:07:00,
2013-03-11 12:09:00,46.1,32.6,30.19,SSW,207,0.0,9.0,59,0.00,,---,0.00,VWS V14.00,2013-03-11 16:09:00,
2013-03-11 12:10:00,46.2,32.7,30.19,WSW,237,6.0,9.0,59,0.00,,---,0.00,VWS V14.00,2013-03-11 16:10:00,
2013-03-11 12:13:00,46.5,32.1,30.19,West,276,1.0,9.0,57,0.00,,---,0.00,VWS V14.00,2013-03-11 16:13:00,
2013-03-11 12:14:00,46.5,32.1,30.19,WNW,284,2.0,9.0,57,0.00,,---,0.00,VWS V14.00,2013-03-11 16:14:00,
2013-03-11 12:15:00,46.7,32.3,30.19,WSW,249,3.0,3.0,57,0.00,,---,0.00,VWS V14.00,2013-03-11 16:15:00,
2013-03-11 12:18:00,47.1,32.2,30.19,WSW,244,3.0,4.0,56,0.00,,---,0.00,VWS V14.00,2013-03-11 16:18:00,
2013-03-11 12:19:00,47.3,32.4,30.19,SW,234,5.0,5.0,56,0.00,,---,0.00,VWS V14.00,2013-03-11 16:19:00,
2013-03-11 12:20:00,47.3,32.4,30.19,WSW,246,0.0,5.0,56,0.00,,---,0.00,VWS V14.00,2013-03-11 16:20:00,
2013-03-11 12:23:00,47.4,31.1,30.19,SW,226,5.0,12.0,53,0.00,,---,0.00,VWS V14.00,2013-03-11 16:23:00,
2013-03-11 12:24:00,47.4,31.6,30.19,SSW,203,3.0,12.0,54,0.00,,---,0.00,VWS V14.00,2013-03-11 16:24:00,
2013-03-11 12:26:00,47.7,31.4,30.19,SSW,195,6.0,12.0,53,0.00,,---,0.00,VWS V14.00,2013-03-11 16:26:00,
2013-03-11 12:28:00,47.9,31.1,30.19,WSW,256,9.0,12.0,52,0.00,,---,0.00,VWS V14.00,2013-03-11 16:28:00,
2013-03-11 12:29:00,48.0,31.2,30.18,SSW,205,1.0,12.0,52,0.00,,---,0.00,VWS V14.00,2013-03-11 16:29:00,
2013-03-11 12:30:00,48.0,30.8,30.18,SW,231,5.0,9.0,51,0.00,,---,0.00,VWS V14.00,2013-03-11 16:30:00,
2013-03-11 12:31:00,48.0,31.2,30.18,West,268,0.0,9.0,52,0.00,,---,0.00,VWS V14.00,2013-03-11 16:31:00,
2013-03-11 12:33:00,48.3,31.5,30.18,WSW,240,2.0,9.0,52,0.00,,---,0.00,VWS V14.00,2013-03-11 16:33:00,
2013-03-11 12:34:00,48.5,31.7,30.18,West,266,2.0,9.0,52,0.00,,---,0.00,VWS V14.00,2013-03-11 16:34:00,
2013-03-11 12:35:00,48.5,31.2,30.18,North,356,0.0,9.0,51,0.00,,---,0.00,VWS V14.00,2013-03-11 16:35:00,
2013-03-11 12:36:00,48.6,31.3,30.18,WNW,294,0.0,9.0,51,0.00,,---,0.00,VWS V14.00,2013-03-11 16:36:00,
2013-03-11 12:38:00,48.8,31.5,30.18,West,270,0.0,9.0,51,0.00,,---,0.00,VWS V14.00,2013-03-11 16:38:00,
2013-03-11 12:39:00,48.8,31.5,30.18,WNW,283,0.0,9.0,51,0.00,,---,0.00,VWS V14.00,2013-03-11 16:39:00,
2013-03-11 12:40:00,48.8,31.5,30.18,WNW,283,0.0,9.0,51,0.00,,---,0.00,VWS V14.00,2013-03-11 16:40:00,
2013-03-11 12:42:00,48.9,31.1,30.18,South,191,4.0,9.0,50,0.00,,---,0.00,VWS V14.00,2013-03-11 16:42:00,
2013-03-11 12:43:00,48.9,31.6,30.18,SSW,201,2.0,9.0,51,0.00,,---,0.00,VWS V14.00,2013-03-11 16:43:00,
2013-03-11 12:44:00,49.1,31.3,30.18,WSW,244,5.0,5.0,50,0.00,,---,0.00,VWS V14.00,2013-03-11 16:44:00,
2013-03-11 12:45:00,49.1,31.3,30.18,West,269,3.0,6.0,50,0.00,,---,0.00,VWS V14.00,2013-03-11 16:45:00,
2013-03-11 12:47:00,49.1,31.3,30.18,South,183,4.0,10.0,50,0.00,,---,0.00,VWS V14.00,2013-03-11 16:47:00,
2013-03-11 12:49:00,49.1,31.3,30.18,SSW,208,6.0,10.0,50,0.00,,---,0.00,VWS V14.00,2013-03-11 16:49:00,
2013-03-11 12:50:00,49.1,31.3,30.18,SW,236,6.0,10.0,50,0.00,,---,0.00,VWS V14.00,2013-03-11 16:50:00,
2013-03-11 12:52:00,49.1,31.3,30.18,WSW,251,3.0,10.0,50,0.00,,---,0.00,VWS V14.00,2013-03-11 16:52:00,
2013-03-11 12:54:00,49.1,31.3,30.18,WSW,240,0.0,10.0,50,0.00,,---,0.00,VWS V14.00,2013-03-11 16:54:00,
2013-03-11 12:55:00,49.1,31.8,30.18,NW,304,0.0,10.0,51,0.00,,---,0.00,VWS V14.00,2013-03-11 16:55:00,
2013-03-11 12:57:00,49.2,31.4,30.18,WSW,251,4.0,10.0,50,0.00,,---,0.00,VWS V14.00,2013-03-11 16:57:00,
2013-03-11 12:59:00,49.2,30.9,30.18,SW,221,5.0,7.0,49,0.00,,---,0.00,VWS V14.00,2013-03-11 16:59:00,
2013-03-11 13:00:00,49.2,30.9,30.18,SSW,205,1.0,7.0,49,0.00,,---,0.00,VWS V14.00,2013-03-11 17:00:00,
2013-03-11 13:02:00,49.2,30.9,30.18,SW,221,3.0,9.0,49,0.00,,---,0.00,VWS V14.00,2013-03-11 17:02:00,
2013-03-11 13:04:00,49.2,30.4,30.18,West,269,8.0,13.0,48,0.00,,---,0.00,VWS V14.00,2013-03-11 17:04:00,
2013-03-11 13:05:00,49.2,30.4,30.18,SSW,193,8.0,13.0,48,0.00,,---,0.00,VWS V14.00,2013-03-11 17:05:00,
2013-03-11 13:07:00,49.2,30.4,30.18,SW,218,3.0,13.0,48,0.00,,---,0.00,VWS V14.00,2013-03-11 17:07:00,
2013-03-11 13:10:00,49.2,30.9,30.18,WSW,246,3.0,13.0,49,0.00,,---,0.00,VWS V14.00,2013-03-11 17:10:00,
2013-03-11 13:11:00,49.5,31.1,30.18,SW,234,5.0,13.0,49,0.00,,---,0.00,VWS V14.00,2013-03-11 17:11:00,
2013-03-11 13:13:00,49.6,30.7,30.17,SW,223,2.0,13.0,48,0.00,,---,0.00,VWS V14.00,2013-03-11 17:13:00,
2013-03-11 13:15:00,49.9,31.5,30.17,WSW,246,5.0,6.0,49,0.00,,---,0.00,VWS V14.00,2013-03-11 17:15:00,
2013-03-11 13:16:00,50.1,30.7,30.17,SW,226,2.0,10.0,47,0.00,,---,0.00,VWS V14.00,2013-03-11 17:16:00,
2013-03-11 13:18:00,50.2,31.3,30.17,WSW,237,0.0,10.0,48,0.00,,---,0.00,VWS V14.00,2013-03-11 17:18:00,
2013-03-11 13:20:00,50.2,30.8,30.17,WSW,252,6.0,10.0,47,0.00,,---,0.00,VWS V14.00,2013-03-11 17:20:00,
2013-03-11 13:21:00,50.2,30.8,30.17,WSW,238,5.0,10.0,47,0.00,,---,0.00,VWS V14.00,2013-03-11 17:21:00,
2013-03-11 13:22:00,50.2,30.2,30.17,WSW,244,1.0,10.0,46,0.00,,---,0.00,VWS V14.00,2013-03-11 17:22:00,
2013-03-11 13:23:00,50.2,30.8,30.17,WSW,243,6.0,10.0,47,0.00,,---,0.00,VWS V14.00,2013-03-11 17:23:00,
2013-03-11 13:25:00,50.2,30.2,30.17,WSW,240,9.0,10.0,46,0.00,,---,0.00,VWS V14.00,2013-03-11 17:25:00,
2013-03-11 13:26:00,50.1,30.1,30.17,WSW,238,2.0,11.0,46,0.00,,---,0.00,VWS V14.00,2013-03-11 17:26:00,
2013-03-11 13:27:00,50.1,30.7,30.17,WSW,243,9.0,11.0,47,0.00,,---,0.00,VWS V14.00,2013-03-11 17:27:00,
2013-03-11 13:29:00,50.1,30.1,30.17,WSW,240,2.0,12.0,46,0.00,,---,0.00,VWS V14.00,2013-03-11 17:29:00,
2013-03-11 13:30:00,50.1,29.6,30.17,WSW,257,0.0,7.0,45,0.00,,---,0.00,VWS V14.00,2013-03-11 17:30:00,
2013-03-11 13:31:00,50.1,29.6,30.17,WSW,240,7.0,10.0,45,0.00,,---,0.00,VWS V14.00,2013-03-11 17:31:00,
2013-03-11 13:32:00,50.1,29.6,30.17,West,264,5.0,10.0,45,0.00,,---,0.00,VWS V14.00,2013-03-11 17:32:00,
2013-03-11 13:34:00,50.2,29.7,30.17,SSW,212,2.0,10.0,45,0.00,,---,0.00,VWS V14.00,2013-03-11 17:34:00,
2013-03-11 13:35:00,50.4,29.9,30.17,SSW,203,9.0,11.0,45,0.00,,---,0.00,VWS V14.00,2013-03-11 17:35:00,
2013-03-11 13:37:00,50.4,29.9,30.17,WSW,243,2.0,12.0,45,0.00,,---,0.00,VWS V14.00,2013-03-11 17:37:00,
2013-03-11 13:39:00,50.5,30.5,30.17,SW,232,3.0,12.0,46,0.00,,---,0.00,VWS V14.00,2013-03-11 17:39:00,
2013-03-11 13:40:00,50.5,30.0,30.17,SW,234,9.0,12.0,45,0.00,,---,0.00,VWS V14.00,2013-03-11 17:40:00,
2013-03-11 13:42:00,50.4,29.9,30.17,SSW,198,3.0,12.0,45,0.00,,---,0.00,VWS V14.00,2013-03-11 17:42:00,
2013-03-11 13:44:00,50.2,29.7,30.16,South,188,0.0,12.0,45,0.00,,---,0.00,VWS V14.00,2013-03-11 17:44:00,
2013-03-11 13:45:00,50.4,29.9,30.16,South,191,1.0,2.0,45,0.00,,---,0.00,VWS V14.00,2013-03-11 17:45:00,
2013-03-11 13:47:00,50.4,29.9,30.16,SSW,210,3.0,5.0,45,0.00,,---,0.00,VWS V14.00,2013-03-11 17:47:00,
2013-03-11 13:48:00,50.4,29.9,30.16,WSW,255,3.0,5.0,45,0.00,,---,0.00,VWS V14.00,2013-03-11 17:48:00,
2013-03-11 13:49:00,50.4,29.9,30.16,SW,236,3.0,5.0,45,0.00,,---,0.00,VWS V14.00,2013-03-11 17:49:00,
2013-03-11 13:50:00,50.5,30.5,30.16,SW,231,0.0,5.0,46,0.00,,---,0.00,VWS V14.00,2013-03-11 17:50:00,
2013-03-11 13:52:00,50.7,30.1,30.16,South,177,2.0,5.0,45,0.00,,---,0.00,VWS V14.00,2013-03-11 17:52:00,
2013-03-11 13:53:00,50.7,30.1,30.16,SW,224,3.0,5.0,45,0.00,,---,0.00,VWS V14.00,2013-03-11 17:53:00,
2013-03-11 13:54:00,50.7,30.1,30.16,SW,232,0.0,5.0,45,0.00,,---,0.00,VWS V14.00,2013-03-11 17:54:00,
2013-03-11 13:55:00,50.8,30.8,30.16,West,275,1.0,5.0,46,0.00,,---,0.00,VWS V14.00,2013-03-11 17:55:00,
2013-03-11 13:58:00,50.8,30.2,30.16,West,259,2.0,7.0,45,0.00,,---,0.00,VWS V14.00,2013-03-11 17:58:00,
2013-03-11 13:59:00,50.7,30.1,30.15,WSW,254,1.0,7.0,45,0.00,,---,0.00,VWS V14.00,2013-03-11 17:59:00,
2013-03-11 14:00:00,50.7,30.1,30.15,SSW,203,3.0,6.0,45,0.00,,---,0.00,VWS V14.00,2013-03-11 18:00:00,
2013-03-11 14:03:00,50.7,30.1,30.15,WSW,247,3.0,6.0,45,0.00,,---,0.00,VWS V14.00,2013-03-11 18:03:00,
2013-03-11 14:04:00,50.7,30.1,30.15,SE,145,3.0,9.0,45,0.00,,---,0.00,VWS V14.00,2013-03-11 18:04:00,
2013-03-11 14:05:00,50.7,30.1,30.15,SSW,203,1.0,9.0,45,0.00,,---,0.00,VWS V14.00,2013-03-11 18:05:00,
2013-03-11 14:08:00,50.7,30.1,30.15,SW,233,1.0,9.0,45,0.00,,---,0.00,VWS V14.00,2013-03-11 18:08:00,
2013-03-11 14:09:00,50.7,30.1,30.15,West,281,3.0,9.0,45,0.00,,---,0.00,VWS V14.00,2013-03-11 18:09:00,
2013-03-11 14:11:00,50.8,30.2,30.15,South,186,3.0,9.0,45,0.00,,---,0.00,VWS V14.00,2013-03-11 18:11:00,
2013-03-11 14:13:00,50.8,30.2,30.15,SW,221,0.0,9.0,45,0.00,,---,0.00,VWS V14.00,2013-03-11 18:13:00,
2013-03-11 14:14:00,50.8,30.2,30.14,SW,235,3.0,9.0,45,0.00,,---,0.00,VWS V14.00,2013-03-11 18:14:00,
2013-03-11 14:15:00,53.2,30.7,30.12,SSW,213,3.0,9.0,42,0.00,,---,0.00,VWS V14.00,2013-03-11 18:15:00,
2013-03-11 14:16:00,50.8,30.2,30.14,South,169,3.0,5.0,45,0.00,,---,0.00,VWS V14.00,2013-03-11 18:16:00,
2013-03-11 14:18:00,50.8,30.2,30.14,SSW,210,1.0,5.0,45,0.00,,---,0.00,VWS V14.00,2013-03-11 18:18:00,
2013-03-11 14:19:00,50.8,30.8,30.14,SW,227,0.0,5.0,46,0.00,,---,0.00,VWS V14.00,2013-03-11 18:19:00,
2013-03-11 14:21:00,51.0,31.0,30.14,South,181,1.0,5.0,46,0.00,,---,0.00,VWS V14.00,2013-03-11 18:21:00,
2013-03-11 14:23:00,51.0,30.4,30.14,SSW,207,4.0,7.0,45,0.00,,---,0.00,VWS V14.00,2013-03-11 18:23:00,
2013-03-11 14:25:00,51.0,30.4,30.14,SW,222,3.0,7.0,45,0.00,,---,0.00,VWS V14.00,2013-03-11 18:25:00,
2013-03-11 14:26:00,51.1,30.0,30.14,SW,221,0.0,10.0,44,0.00,,---,0.00,VWS V14.00,2013-03-11 18:26:00,
2013-03-11 14:28:00,51.1,30.0,30.14,SW,224,5.0,10.0,44,0.00,,---,0.00,VWS V14.00,2013-03-11 18:28:00,
2013-03-11 14:29:00,51.1,30.0,30.14,WSW,251,3.0,10.0,44,0.00,,---,0.00,VWS V14.00,2013-03-11 18:29:00,
2013-03-11 14:30:00,51.1,30.0,30.14,SSW,209,9.0,9.0,44,0.00,,---,0.00,VWS V14.00,2013-03-11 18:30:00,
2013-03-11 14:31:00,51.1,30.0,30.14,SW,234,3.0,9.0,44,0.00,,---,0.00,VWS V14.00,2013-03-11 18:31:00,
2013-03-11 14:33:00,51.3,30.1,30.14,WSW,255,10.0,10.0,44,0.00,,---,0.00,VWS V14.00,2013-03-11 18:33:00,
2013-03-11 14:34:00,51.3,30.1,30.14,SSW,210,8.0,10.0,44,0.00,,---,0.00,VWS V14.00,2013-03-11 18:34:00,
2013-03-11 14:35:00,51.3,30.1,30.14,WSW,243,2.0,10.0,44,0.00,,---,0.00,VWS V14.00,2013-03-11 18:35:00,
2013-03-11 14:37:00,51.4,30.2,30.14,SSW,204,0.0,10.0,44,0.00,,---,0.00,VWS V14.00,2013-03-11 18:37:00,
2013-03-11 14:38:00,51.6,30.4,30.14,SSW,205,0.0,10.0,44,0.00,,---,0.00,VWS V14.00,2013-03-11 18:38:00,
2013-03-11 14:39:00,51.6,31.0,30.14,SSW,204,5.0,10.0,45,0.00,,---,0.00,VWS V14.00,2013-03-11 18:39:00,
2013-03-11 14:40:00,51.6,30.4,30.14,SW,220,0.0,10.0,44,0.00,,---,0.00,VWS V14.00,2013-03-11 18:40:00,
2013-03-11 14:42:00,51.7,31.1,30.14,SW,225,1.0,10.0,45,0.00,,---,0.00,VWS V14.00,2013-03-11 18:42:00,
2013-03-11 14:44:00,51.7,30.5,30.13,WSW,242,12.0,12.0,44,0.00,,---,0.00,VWS V14.00,2013-03-11 18:44:00,
2013-03-11 14:45:00,53.6,32.2,30.11,SSW,205,2.0,7.0,44,0.00,,---,0.00,VWS V14.00,2013-03-11 18:45:00,
2013-03-11 14:46:00,51.7,29.9,30.13,SSW,193,0.0,10.0,43,0.00,,---,0.00,VWS V14.00,2013-03-11 18:46:00,
2013-03-11 14:47:00,51.7,29.9,30.13,WSW,253,6.0,12.0,43,0.00,,---,0.00,VWS V14.00,2013-03-11 18:47:00,
2013-03-11 14:49:00,51.6,29.9,30.13,SSW,205,4.0,12.0,43,0.00,,---,0.00,VWS V14.00,2013-03-11 18:49:00,
2013-03-11 14:51:00,51.6,29.9,30.13,SW,214,2.0,12.0,43,0.00,,---,0.00,VWS V14.00,2013-03-11 18:51:00,
2013-03-11 14:52:00,51.7,30.5,30.13,SW,218,4.0,12.0,44,0.00,,---,0.00,VWS V14.00,2013-03-11 18:52:00,
2013-03-11 14:54:00,51.9,30.1,30.13,SSW,202,0.0,12.0,43,0.00,,---,0.00,VWS V14.00,2013-03-11 18:54:00,
2013-03-11 14:56:00,52.0,30.2,30.13,SE,144,1.0,12.0,43,0.00,,---,0.00,VWS V14.00,2013-03-11 18:56:00,
2013-03-11 14:57:00,52.0,30.2,30.13,SSW,203,11.0,14.0,43,0.00,,---,0.00,VWS V14.00,2013-03-11 18:57:00,
2013-03-11 14:59:00,52.2,30.4,30.13,West,265,2.0,14.0,43,0.00,,---,0.00,VWS V14.00,2013-03-11 18:59:00,
2013-03-11 15:00:00,55.1,34.7,30.11,South,184,5.0,10.0,46,0.00,,---,0.00,VWS V14.00,2013-03-11 19:00:00,
2013-03-11 15:02:00,52.2,31.0,30.13,SW,223,0.0,6.0,44,0.00,,---,0.00,VWS V14.00,2013-03-11 19:02:00,
2013-03-11 15:04:00,52.3,30.5,30.13,WSW,240,5.0,6.0,43,0.00,,---,0.00,VWS V14.00,2013-03-11 19:04:00,
2013-03-11 15:07:00,52.6,30.8,30.13,SW,235,0.0,6.0,43,0.00,,---,0.00,VWS V14.00,2013-03-11 19:07:00,
2013-03-11 15:09:00,52.9,31.0,30.13,WSW,250,2.0,6.0,43,0.00,,---,0.00,VWS V14.00,2013-03-11 19:09:00,
2013-03-11 15:12:00,53.1,31.2,30.13,WSW,251,9.0,9.0,43,0.00,,---,0.00,VWS V14.00,2013-03-11 19:12:00,
2013-03-11 15:13:00,53.1,30.6,30.13,West,274,2.0,9.0,42,0.00,,---,0.00,VWS V14.00,2013-03-11 19:13:00,
2013-03-11 15:14:00,53.2,30.7,30.12,South,172,1.0,3.0,42,0.00,,---,0.00,VWS V14.00,2013-03-11 19:14:00,
2013-03-11 15:15:00,54.1,34.9,30.11,South,189,5.0,11.0,48,0.00,,---,0.00,VWS V14.00,2013-03-11 19:15:00,
2013-03-11 15:17:00,53.2,30.1,30.12,SW,233,3.0,6.0,41,0.00,,---,0.00,VWS V14.00,2013-03-11 19:17:00,
2013-03-11 15:18:00,53.2,30.7,30.12,SW,236,4.0,6.0,42,0.00,,---,0.00,VWS V14.00,2013-03-11 19:18:00,
2013-03-11 15:19:00,53.2,30.7,30.12,WSW,241,11.0,11.0,42,0.00,,---,0.00,VWS V14.00,2013-03-11 19:19:00,
2013-03-11 15:20:00,53.2,30.7,30.12,SSW,213,6.0,11.0,42,0.00,,---,0.00,VWS V14.00,2013-03-11 19:20:00,
2013-03-11 15:22:00,53.3,30.2,30.12,SW,227,3.0,11.0,41,0.00,,---,0.00,VWS V14.00,2013-03-11 19:22:00,
2013-03-11 15:23:00,53.3,30.2,30.12,WSW,255,5.0,11.0,41,0.00,,---,0.00,VWS V14.00,2013-03-11 19:23:00,
2013-03-11 15:24:00,53.3,30.8,30.12,WSW,253,4.0,11.0,42,0.00,,---,0.00,VWS V14.00,2013-03-11 19:24:00,
2013-03-11 15:25:00,53.3,30.2,30.12,SW,221,1.0,11.0,41,0.00,,---,0.00,VWS V14.00,2013-03-11 19:25:00,
2013-03-11 15:28:00,53.3,30.8,30.12,West,265,0.0,11.0,42,0.00,,---,0.00,VWS V14.00,2013-03-11 19:28:00,
2013-03-11 15:29:00,53.3,30.8,30.12,SW,214,3.0,3.0,42,0.00,,---,0.00,VWS V14.00,2013-03-11 19:29:00,
2013-03-11 15:30:00,53.3,30.8,30.12,SSW,206,0.0,3.0,42,0.00,,---,0.00,VWS V14.00,2013-03-11 19:30:00,
2013-03-11 15:33:00,53.5,31.0,30.12,SW,216,3.0,6.0,42,0.00,,---,0.00,VWS V14.00,2013-03-11 19:33:00,
2013-03-11 15:35:00,53.5,31.0,30.12,South,177,1.0,6.0,42,0.00,,---,0.00,VWS V14.00,2013-03-11 19:35:00,
2013-03-11 15:38:00,53.3,31.4,30.12,South,185,0.0,7.0,43,0.00,,---,0.00,VWS V14.00,2013-03-11 19:38:00,
2013-03-11 15:40:00,53.5,32.1,30.12,South,173,2.0,7.0,44,0.00,,---,0.00,VWS V14.00,2013-03-11 19:40:00,
2013-03-11 15:43:00,53.6,32.2,30.12,WSW,241,0.0,7.0,44,0.00,,---,0.00,VWS V14.00,2013-03-11 19:43:00,
2013-03-11 15:45:00,53.8,32.4,30.11,South,175,2.0,3.0,44,0.00,,---,0.00,VWS V14.00,2013-03-11 19:45:00,
2013-03-11 15:48:00,54.1,33.2,30.11,SSE,156,0.0,5.0,45,0.00,,---,0.00,VWS V14.00,2013-03-11 19:48:00,
2013-03-11 15:50:00,54.4,33.0,30.11,WSW,254,5.0,7.0,44,0.00,,---,0.00,VWS V14.00,2013-03-11 19:50:00,
2013-03-11 15:53:00,54.7,33.2,30.11,WSW,258,1.0,9.0,44,0.00,,---,0.00,VWS V14.00,2013-03-11 19:53:00,
2013-03-11 15:55:00,55.0,33.5,30.11,West,259,9.0,10.0,44,0.00,,---,0.00,VWS V14.00,2013-03-11 19:55:00,
2013-03-11 15:56:00,55.0,33.5,30.11,SW,232,2.0,10.0,44,0.00,,---,0.00,VWS V14.00,2013-03-11 19:56:00,
2013-03-11 15:58:00,55.1,34.2,30.11,SW,220,1.0,10.0,45,0.00,,---,0.00,VWS V14.00,2013-03-11 19:58:00,
2013-03-11 15:59:00,55.1,34.2,30.11,South,173,1.0,10.0,45,0.00,,---,0.00,VWS V14.00,2013-03-11 19:59:00,
2013-03-11 16:00:00,55.0,34.6,30.11,South,189,1.0,4.0,46,0.00,,---,0.00,VWS V14.00,2013-03-11 20:00:00,
2013-03-11 16:02:00,55.0,35.2,30.11,SSE,160,5.0,5.0,47,0.00,,---,0.00,VWS V14.00,2013-03-11 20:02:00,
2013-03-11 16:03:00,54.7,35.4,30.11,South,176,0.0,5.0,48,0.00,,---,0.00,VWS V14.00,2013-03-11 20:03:00,
2013-03-11 16:04:00,54.7,35.4,30.11,South,176,1.0,5.0,48,0.00,,---,0.00,VWS V14.00,2013-03-11 20:04:00,
2013-03-11 16:06:00,54.5,35.2,30.11,SSW,209,0.0,6.0,48,0.00,,---,0.00,VWS V14.00,2013-03-11 20:06:00,
2013-03-11 16:07:00,54.5,35.8,30.11,SW,219,4.0,6.0,49,0.00,,---,0.00,VWS V14.00,2013-03-11 20:07:00,
2013-03-11 16:09:00,54.5,35.2,30.11,SW,220,4.0,6.0,48,0.00,,---,0.00,VWS V14.00,2013-03-11 20:09:00,
2013-03-11 16:11:00,54.4,35.7,30.11,SW,221,1.0,6.0,49,0.00,,---,0.00,VWS V14.00,2013-03-11 20:11:00,
2013-03-11 16:12:00,54.2,35.0,30.11,South,181,5.0,6.0,48,0.00,,---,0.00,VWS V14.00,2013-03-11 20:12:00,
2013-03-11 16:14:00,54.1,34.9,30.11,West,259,7.0,11.0,48,0.00,,---,0.00,VWS V14.00,2013-03-11 20:14:00,
2013-03-11 16:15:00,51.3,36.2,30.10,South,189,0.0,10.0,56,0.00,,---,0.00,VWS V14.00,2013-03-11 20:15:00,
2013-03-11 16:17:00,53.8,35.1,30.11,South,188,2.0,10.0,49,0.00,,---,0.00,VWS V14.00,2013-03-11 20:17:00,
2013-03-11 16:19:00,53.5,35.3,30.11,SSW,198,1.0,10.0,50,0.00,,---,0.00,VWS V14.00,2013-03-11 20:19:00,
2013-03-11 16:22:00,53.3,35.2,30.11,WSW,251,1.0,10.0,50,0.00,,---,0.00,VWS V14.00,2013-03-11 20:22:00,
2013-03-11 16:24:00,53.2,35.6,30.11,SSW,203,3.0,10.0,51,0.00,,---,0.00,VWS V14.00,2013-03-11 20:24:00,
2013-03-11 16:28:00,53.1,35.5,30.11,SSW,193,1.0,10.0,51,0.00,,---,0.00,VWS V14.00,2013-03-11 20:28:00,
2013-03-11 16:29:00,52.9,35.3,30.11,SSW,192,1.0,10.0,51,0.00,,---,0.00,VWS V14.00,2013-03-11 20:29:00,
2013-03-11 16:30:00,51.0,37.2,30.10,SSW,202,2.0,7.0,59,0.00,,---,0.00,VWS V14.00,2013-03-11 20:30:00,
2013-03-11 16:33:00,52.9,34.8,30.11,WSW,245,2.0,9.0,50,0.00,,---,0.00,VWS V14.00,2013-03-11 20:33:00,
2013-03-11 16:34:00,52.8,35.2,30.11,South,185,4.0,9.0,51,0.00,,---,0.00,VWS V14.00,2013-03-11 20:34:00,
2013-03-11 16:35:00,52.8,35.2,30.11,South,184,2.0,9.0,51,0.00,,---,0.00,VWS V14.00,2013-03-11 20:35:00,
2013-03-11 16:38:00,52.6,35.0,30.11,South,183,4.0,9.0,51,0.00,,---,0.00,VWS V14.00,2013-03-11 20:38:00,
2013-03-11 16:39:00,52.5,35.4,30.11,SSW,193,3.0,9.0,52,0.00,,---,0.00,VWS V14.00,2013-03-11 20:39:00,
2013-03-11 16:40:00,52.5,35.4,30.11,South,181,4.0,9.0,52,0.00,,---,0.00,VWS V14.00,2013-03-11 20:40:00,
2013-03-11 16:43:00,52.3,35.2,30.10,South,173,3.0,9.0,52,0.00,,---,0.00,VWS V14.00,2013-03-11 20:43:00,
2013-03-11 16:44:00,52.3,35.2,30.10,South,174,1.0,9.0,52,0.00,,---,0.00,VWS V14.00,2013-03-11 20:44:00,
2013-03-11 16:45:00,52.2,35.6,30.10,South,174,0.0,1.0,53,0.00,,---,0.00,VWS V14.00,2013-03-11 20:45:00,
2013-03-11 16:49:00,52.0,35.4,30.10,SSW,207,0.0,6.0,53,0.00,,---,0.00,VWS V14.00,2013-03-11 20:49:00,
2013-03-11 16:50:00,52.0,35.4,30.10,SSW,198,6.0,6.0,53,0.00,,---,0.00,VWS V14.00,2013-03-11 20:50:00,
2013-03-11 16:54:00,51.7,35.6,30.10,SSW,199,3.0,8.0,54,0.00,,---,0.00,VWS V14.00,2013-03-11 20:54:00,
2013-03-11 16:55:00,51.7,35.6,30.10,SSW,201,1.0,8.0,54,0.00,,---,0.00,VWS V14.00,2013-03-11 20:55:00,
2013-03-11 16:59:00,51.6,36.0,30.10,SSW,193,0.0,8.0,55,0.00,,---,0.00,VWS V14.00,2013-03-11 20:59:00,
2013-03-11 17:00:00,51.4,35.8,30.10,SE,138,5.0,10.0,55,0.00,,---,0.00,VWS V14.00,2013-03-11 21:00:00,
2013-03-11 17:04:00,51.4,35.8,30.10,SSW,197,3.0,10.0,55,0.00,,---,0.00,VWS V14.00,2013-03-11 21:04:00,
2013-03-11 17:05:00,51.4,36.2,30.10,SSW,195,2.0,10.0,56,0.00,,---,0.00,VWS V14.00,2013-03-11 21:05:00,
2013-03-11 17:09:00,51.3,36.2,30.10,WNW,287,0.0,10.0,56,0.00,,---,0.00,VWS V14.00,2013-03-11 21:09:00,
2013-03-11 17:10:00,51.3,36.2,30.10,WNW,288,0.0,10.0,56,0.00,,---,0.00,VWS V14.00,2013-03-11 21:10:00,
2013-03-11 17:14:00,51.3,36.2,30.10,South,189,0.0,10.0,56,0.00,,---,0.00,VWS V14.00,2013-03-11 21:14:00,
2013-03-11 17:15:00,51.3,36.2,30.10,WSW,256,3.0,5.0,56,0.00,,---,0.00,VWS V14.00,2013-03-11 21:15:00,
2013-03-11 17:16:00,51.3,36.2,30.10,SSW,211,0.0,5.0,56,0.00,,---,0.00,VWS V14.00,2013-03-11 21:16:00,
2013-03-11 17:19:00,51.3,36.6,30.10,South,171,4.0,5.0,57,0.00,,---,0.00,VWS V14.00,2013-03-11 21:19:00,
2013-03-11 17:20:00,51.3,36.6,30.10,SW,226,2.0,5.0,57,0.00,,---,0.00,VWS V14.00,2013-03-11 21:20:00,
2013-03-11 17:21:00,51.3,36.6,30.10,SW,223,3.0,7.0,57,0.00,,---,0.00,VWS V14.00,2013-03-11 21:21:00,
2013-03-11 17:24:00,51.1,36.8,30.10,South,179,2.0,7.0,58,0.00,,---,0.00,VWS V14.00,2013-03-11 21:24:00,
2013-03-11 17:25:00,51.1,36.8,30.10,South,179,1.0,7.0,58,0.00,,---,0.00,VWS V14.00,2013-03-11 21:25:00,
2013-03-11 17:26:00,51.0,36.8,30.10,SSW,205,4.0,7.0,58,0.00,,---,0.00,VWS V14.00,2013-03-11 21:26:00,
2013-03-11 17:29:00,51.0,37.2,30.10,SSW,202,2.0,7.0,59,0.00,,---,0.00,VWS V14.00,2013-03-11 21:29:00,
2013-03-11 17:30:00,51.0,37.2,30.10,SSW,202,0.0,2.0,59,0.00,,---,0.00,VWS V14.00,2013-03-11 21:30:00,
2013-03-11 17:31:00,50.8,37.0,30.10,SSW,195,1.0,3.0,59,0.00,,---,0.00,VWS V14.00,2013-03-11 21:31:00,
2013-03-11 17:34:00,50.8,37.0,30.10,SSW,212,4.0,4.0,59,0.00,,---,0.00,VWS V14.00,2013-03-11 21:34:00,
2013-03-11 17:35:00,50.8,37.0,30.10,SSW,212,0.0,4.0,59,0.00,,---,0.00,VWS V14.00,2013-03-11 21:35:00,
2013-03-11 17:37:00,50.8,37.0,30.10,South,186,1.0,4.0,59,0.00,,---,0.00,VWS V14.00,2013-03-11 21:37:00,
2013-03-11 17:39:00,50.8,37.0,30.10,South,179,0.0,5.0,59,0.00,,---,0.00,VWS V14.00,2013-03-11 21:39:00,
2013-03-11 17:40:00,50.8,37.0,30.10,South,180,2.0,5.0,59,0.00,,---,0.00,VWS V14.00,2013-03-11 21:40:00,
2013-03-11 17:42:00,50.7,36.9,30.10,South,181,0.0,5.0,59,0.00,,---,0.00,VWS V14.00,2013-03-11 21:42:00,
2013-03-11 17:44:00,50.7,36.9,30.10,South,172,0.0,10.0,59,0.00,,---,0.00,VWS V14.00,2013-03-11 21:44:00,
2013-03-11 17:45:00,50.7,36.9,30.10,South,172,0.0,1.0,59,0.00,,---,0.00,VWS V14.00,2013-03-11 21:45:00,
2013-03-11 17:47:00,50.5,36.7,30.10,SW,219,3.0,5.0,59,0.00,,---,0.00,VWS V14.00,2013-03-11 21:47:00,
2013-03-11 17:49:00,50.5,37.2,30.10,SSW,195,1.0,7.0,60,0.00,,---,0.00,VWS V14.00,2013-03-11 21:49:00,
2013-03-11 17:50:00,50.5,37.2,30.10,South,191,2.0,7.0,60,0.00,,---,0.00,VWS V14.00,2013-03-11 21:50:00,
2013-03-11 17:51:00,50.4,37.0,30.10,SSW,200,5.0,7.0,60,0.00,,---,0.00,VWS V14.00,2013-03-11 21:51:00,
2013-03-11 17:52:00,50.4,37.0,30.10,SW,216,2.0,7.0,60,0.00,,---,0.00,VWS V14.00,2013-03-11 21:52:00,
2013-03-11 17:54:00,50.4,37.0,30.10,South,191,0.0,7.0,60,0.00,,---,0.00,VWS V14.00,2013-03-11 21:54:00,
2013-03-11 17:55:00,50.2,36.9,30.10,South,185,2.0,7.0,60,0.00,,---,0.00,VWS V14.00,2013-03-11 21:55:00,
2013-03-11 17:56:00,50.2,36.9,30.10,South,189,9.0,10.0,60,0.00,,---,0.00,VWS V14.00,2013-03-11 21:56:00,
2013-03-11 17:57:00,50.2,36.9,30.10,South,176,0.0,10.0,60,0.00,,---,0.00,VWS V14.00,2013-03-11 21:57:00,
2013-03-11 17:59:00,50.1,37.2,30.10,WSW,247,3.0,3.0,61,0.00,,---,0.00,VWS V14.00,2013-03-11 21:59:00,
2013-03-11 18:00:00,50.1,37.2,30.10,SW,221,1.0,3.0,61,0.00,,---,0.00,VWS V14.00,2013-03-11 22:00:00,
2013-03-11 18:01:00,50.1,37.2,30.10,SSW,207,7.0,7.0,61,0.00,,---,0.00,VWS V14.00,2013-03-11 22:01:00,
2013-03-11 18:02:00,49.9,37.0,30.10,South,191,5.0,7.0,61,0.00,,---,0.00,VWS V14.00,2013-03-11 22:02:00,
2013-03-11 18:04:00,49.9,37.0,30.10,SSW,192,0.0,7.0,61,0.00,,---,0.00,VWS V14.00,2013-03-11 22:04:00,
2013-03-11 18:05:00,49.8,36.9,30.10,SSW,202,5.0,7.0,61,0.00,,---,0.00,VWS V14.00,2013-03-11 22:05:00,
2013-03-11 18:06:00,49.8,36.9,30.10,South,172,3.0,7.0,61,0.00,,---,0.00,VWS V14.00,2013-03-11 22:06:00,
2013-03-11 18:07:00,49.8,37.3,30.10,SSW,202,4.0,7.0,62,0.00,,---,0.00,VWS V14.00,2013-03-11 22:07:00,
2013-03-11 18:09:00,49.6,37.1,30.10,SSE,162,2.0,7.0,62,0.00,,---,0.00,VWS V14.00,2013-03-11 22:09:00,
2013-03-11 18:11:00,49.5,37.0,30.10,South,169,1.0,7.0,62,0.00,,---,0.00,VWS V14.00,2013-03-11 22:11:00,
2013-03-11 18:13:00,49.4,36.9,30.10,South,187,2.0,8.0,62,0.00,,---,0.00,VWS V14.00,2013-03-11 22:13:00,
2013-03-11 18:14:00,49.4,36.9,30.10,South,186,1.0,2.0,62,0.00,,---,0.00,VWS V14.00,2013-03-11 22:14:00,
2013-03-11 18:15:00,46.2,37.3,30.10,SSW,206,1.0,10.0,71,0.00,,---,0.00,VWS V14.00,2013-03-11 22:15:00,
2013-03-11 18:16:00,49.2,37.2,30.10,SSW,202,2.0,6.0,63,0.00,,---,0.00,VWS V14.00,2013-03-11 22:16:00,
2013-03-11 18:17:00,49.2,37.2,30.10,SW,217,2.0,6.0,63,0.00,,---,0.00,VWS V14.00,2013-03-11 22:17:00,
2013-03-11 18:18:00,49.2,37.2,30.10,SSW,201,0.0,6.0,63,0.00,,---,0.00,VWS V14.00,2013-03-11 22:18:00,
2013-03-11 18:20:00,49.1,37.1,30.10,SSW,201,1.0,6.0,63,0.00,,---,0.00,VWS V14.00,2013-03-11 22:20:00,
2013-03-11 18:21:00,49.1,37.1,30.10,SSW,208,4.0,6.0,63,0.00,,---,0.00,VWS V14.00,2013-03-11 22:21:00,
2013-03-11 18:22:00,48.9,37.3,30.10,SSE,159,0.0,6.0,64,0.00,,---,0.00,VWS V14.00,2013-03-11 22:22:00,
2013-03-11 18:23:00,48.9,37.3,30.10,SSE,160,0.0,6.0,64,0.00,,---,0.00,VWS V14.00,2013-03-11 22:23:00,
2013-03-11 18:25:00,48.8,37.2,30.10,SSW,203,1.0,6.0,64,0.00,,---,0.00,VWS V14.00,2013-03-11 22:25:00,
2013-03-11 18:26:00,48.8,37.2,30.10,SSW,203,2.0,6.0,64,0.00,,---,0.00,VWS V14.00,2013-03-11 22:26:00,
2013-03-11 18:27:00,48.8,37.2,30.10,SSW,203,1.0,6.0,64,0.00,,---,0.00,VWS V14.00,2013-03-11 22:27:00,
2013-03-11 18:28:00,48.6,37.0,30.10,SSW,203,3.0,6.0,64,0.00,,---,0.00,VWS V14.00,2013-03-11 22:28:00,
2013-03-11 18:30:00,48.6,37.0,30.10,SSE,164,0.0,3.0,64,0.00,,---,0.00,VWS V14.00,2013-03-11 22:30:00,
2013-03-11 18:31:00,48.5,36.9,30.10,SSE,164,1.0,3.0,64,0.00,,---,0.00,VWS V14.00,2013-03-11 22:31:00,
2013-03-11 18:32:00,48.5,37.3,30.10,SSW,209,1.0,5.0,65,0.00,,---,0.00,VWS V14.00,2013-03-11 22:32:00,
2013-03-11 18:33:00,48.5,37.3,30.10,SSW,209,0.0,5.0,65,0.00,,---,0.00,VWS V14.00,2013-03-11 22:33:00,
2013-03-11 18:35:00,48.3,37.1,30.10,SW,214,2.0,5.0,65,0.00,,---,0.00,VWS V14.00,2013-03-11 22:35:00,
2013-03-11 18:37:00,48.3,37.1,30.10,SSE,160,0.0,5.0,65,0.00,,---,0.00,VWS V14.00,2013-03-11 22:37:00,
2013-03-11 18:38:00,48.2,37.0,30.10,SSW,202,4.0,5.0,65,0.00,,---,0.00,VWS V14.00,2013-03-11 22:38:00,
2013-03-11 18:40:00,48.0,36.8,30.10,SSW,199,0.0,5.0,65,0.00,,---,0.00,VWS V14.00,2013-03-11 22:40:00,
2013-03-11 18:42:00,47.9,36.7,30.10,South,186,3.0,5.0,65,0.00,,---,0.00,VWS V14.00,2013-03-11 22:42:00,
2013-03-11 18:43:00,47.9,36.7,30.10,SSW,198,4.0,6.0,65,0.00,,---,0.00,VWS V14.00,2013-03-11 22:43:00,
2013-03-11 18:45:00,47.7,36.9,30.10,SSW,194,2.0,10.0,66,0.00,,---,0.00,VWS V14.00,2013-03-11 22:45:00,
2013-03-11 18:47:00,47.6,36.8,30.10,SSW,195,4.0,10.0,66,0.00,,---,0.00,VWS V14.00,2013-03-11 22:47:00,
2013-03-11 18:48:00,47.6,36.8,30.10,South,189,3.0,10.0,66,0.00,,---,0.00,VWS V14.00,2013-03-11 22:48:00,
2013-03-11 18:50:00,47.3,36.9,30.10,South,180,2.0,10.0,67,0.00,,---,0.00,VWS V14.00,2013-03-11 22:50:00,
2013-03-11 18:52:00,47.1,36.7,30.10,SW,224,2.0,10.0,67,0.00,,---,0.00,VWS V14.00,2013-03-11 22:52:00,
2013-03-11 18:53:00,47.1,36.7,30.10,SW,216,4.0,10.0,67,0.00,,---,0.00,VWS V14.00,2013-03-11 22:53:00,
2013-03-11 18:55:00,47.0,37.0,30.10,South,188,5.0,10.0,68,0.00,,---,0.00,VWS V14.00,2013-03-11 22:55:00,
2013-03-11 18:57:00,47.0,37.0,30.10,South,184,1.0,10.0,68,0.00,,---,0.00,VWS V14.00,2013-03-11 22:57:00,
2013-03-11 18:58:00,46.8,36.8,30.10,South,172,1.0,10.0,68,0.00,,---,0.00,VWS V14.00,2013-03-11 22:58:00,
2013-03-11 19:00:00,46.8,36.8,30.10,SSW,197,1.0,5.0,68,0.00,,---,0.00,VWS V14.00,2013-03-11 23:00:00,
2013-03-11 19:03:00,46.7,36.7,30.10,SSW,194,0.0,5.0,68,0.00,,---,0.00,VWS V14.00,2013-03-11 23:03:00,
2013-03-11 19:04:00,46.7,36.7,30.10,South,184,0.0,5.0,68,0.00,,---,0.00,VWS V14.00,2013-03-11 23:04:00,
2013-03-11 19:05:00,46.5,36.5,30.10,South,185,1.0,5.0,68,0.00,,---,0.00,VWS V14.00,2013-03-11 23:05:00,
2013-03-11 19:08:00,46.4,36.8,30.10,South,181,3.0,6.0,69,0.00,,---,0.00,VWS V14.00,2013-03-11 23:08:00,
2013-03-11 19:09:00,46.4,36.8,30.10,SW,229,5.0,6.0,69,0.00,,---,0.00,VWS V14.00,2013-03-11 23:09:00,
2013-03-11 19:10:00,46.4,37.2,30.10,South,181,2.0,9.0,70,0.00,,---,0.00,VWS V14.00,2013-03-11 23:10:00,
2013-03-11 19:13:00,46.2,37.0,30.10,South,191,3.0,10.0,70,0.00,,---,0.00,VWS V14.00,2013-03-11 23:13:00,
2013-03-11 19:14:00,46.2,37.3,30.10,SSW,206,1.0,1.0,71,0.00,,---,0.00,VWS V14.00,2013-03-11 23:14:00,
2013-03-11 19:15:00,44.6,37.5,30.11,SW,222,5.0,9.0,76,0.00,,---,0.00,VWS V14.00,2013-03-11 23:15:00,
2013-03-11 19:17:00,46.1,37.2,30.10,South,174,2.0,3.0,71,0.00,,---,0.00,VWS V14.00,2013-03-11 23:17:00,
2013-03-11 19:18:00,46.1,37.2,30.10,SSW,204,2.0,12.0,71,0.00,,---,0.00,VWS V14.00,2013-03-11 23:18:00,
2013-03-11 19:19:00,46.0,37.1,30.10,South,187,2.0,12.0,71,0.00,,---,0.00,VWS V14.00,2013-03-11 23:19:00,
2013-03-11 19:22:00,45.8,37.0,30.10,SSE,147,4.0,12.0,71,0.00,,---,0.00,VWS V14.00,2013-03-11 23:22:00,
2013-03-11 19:23:00,45.8,37.3,30.10,SSE,156,0.0,12.0,72,0.00,,---,0.00,VWS V14.00,2013-03-11 23:23:00,
2013-03-11 19:24:00,45.8,37.3,30.10,SSW,200,3.0,14.0,72,0.00,,---,0.00,VWS V14.00,2013-03-11 23:24:00,
2013-03-11 19:28:00,45.7,37.2,30.10,SSW,204,4.0,14.0,72,0.00,,---,0.00,VWS V14.00,2013-03-11 23:28:00,
2013-03-11 19:29:00,45.7,37.5,30.10,South,182,3.0,3.0,73,0.00,,---,0.00,VWS V14.00,2013-03-11 23:29:00,
2013-03-11 19:30:00,44.5,37.8,30.11,SSE,161,2.0,9.0,77,0.00,,---,0.00,VWS V14.00,2013-03-11 23:30:00,
2013-03-11 19:33:00,45.5,37.4,30.10,South,181,2.0,7.0,73,0.00,,---,0.00,VWS V14.00,2013-03-11 23:33:00,
2013-03-11 19:34:00,45.4,37.3,30.10,SSW,200,3.0,7.0,73,0.00,,---,0.00,VWS V14.00,2013-03-11 23:34:00,
2013-03-11 19:38:00,45.2,37.1,30.10,SW,224,3.0,7.0,73,0.00,,---,0.00,VWS V14.00,2013-03-11 23:38:00,
2013-03-11 19:39:00,45.2,37.1,30.10,SE,134,0.0,7.0,73,0.00,,---,0.00,VWS V14.00,2013-03-11 23:39:00,
2013-03-11 19:43:00,45.1,37.3,30.10,SSW,204,0.0,9.0,74,0.00,,---,0.00,VWS V14.00,2013-03-11 23:43:00,
2013-03-11 19:44:00,45.1,37.3,30.11,WSW,253,3.0,9.0,74,0.00,,---,0.00,VWS V14.00,2013-03-11 23:44:00,
2013-03-11 19:45:00,44.5,38.1,30.11,SW,219,1.0,11.0,78,0.00,,---,0.00,VWS V14.00,2013-03-11 23:45:00,
2013-03-11 19:48:00,44.9,37.1,30.11,South,191,1.0,9.0,74,0.00,,---,0.00,VWS V14.00,2013-03-11 23:48:00,
2013-03-11 19:49:00,44.9,37.1,30.11,South,191,2.0,9.0,74,0.00,,---,0.00,VWS V14.00,2013-03-11 23:49:00,
2013-03-11 19:53:00,44.9,37.5,30.11,SSW,202,4.0,9.0,75,0.00,,---,0.00,VWS V14.00,2013-03-11 23:53:00,
2013-03-11 19:54:00,44.9,37.5,30.11,South,181,4.0,9.0,75,0.00,,---,0.00,VWS V14.00,2013-03-11 23:54:00,
2013-03-11 19:55:00,44.9,37.5,30.11,SSE,151,2.0,9.0,75,0.00,,---,0.00,VWS V14.00,2013-03-11 23:55:00,
2013-03-11 19:58:00,44.9,37.5,30.11,SW,233,4.0,9.0,75,0.00,,---,0.00,VWS V14.00,2013-03-11 23:58:00,
2013-03-11 19:59:00,44.9,37.5,30.11,SSE,152,2.0,4.0,75,0.00,,---,0.00,VWS V14.00,2013-03-11 23:59:00,
2013-03-11 20:00:00,44.9,37.5,30.11,SSE,161,1.0,4.0,75,0.00,,---,0.00,VWS V14.00,2013-03-12 00:00:00,
2013-03-11 20:04:00,44.8,37.7,30.11,South,191,1.0,5.0,76,0.00,,---,0.00,VWS V14.00,2013-03-12 00:04:00,
2013-03-11 20:05:00,44.8,37.7,30.11,South,186,3.0,5.0,76,0.00,,---,0.00,VWS V14.00,2013-03-12 00:05:00,
2013-03-11 20:09:00,44.8,37.7,30.11,SSW,199,3.0,9.0,76,0.00,,---,0.00,VWS V14.00,2013-03-12 00:09:00,
2013-03-11 20:10:00,44.8,37.7,30.11,South,185,2.0,9.0,76,0.00,,---,0.00,VWS V14.00,2013-03-12 00:10:00,
2013-03-11 20:14:00,44.6,37.5,30.11,SW,219,1.0,9.0,76,0.00,,---,0.00,VWS V14.00,2013-03-12 00:14:00,
2013-03-11 20:15:00,44.6,37.5,30.11,SSW,200,0.0,5.0,76,0.00,,---,0.00,VWS V14.00,2013-03-12 00:15:00,
2013-03-11 20:19:00,44.6,37.8,30.11,SSW,203,2.0,5.0,77,0.00,,---,0.00,VWS V14.00,2013-03-12 00:19:00,
2013-03-11 20:20:00,44.6,37.8,30.11,SSW,194,5.0,5.0,77,0.00,,---,0.00,VWS V14.00,2013-03-12 00:20:00,
2013-03-11 20:24:00,44.5,37.8,30.11,SSE,147,3.0,5.0,77,0.00,,---,0.00,VWS V14.00,2013-03-12 00:24:00,
2013-03-11 20:25:00,44.5,37.8,30.11,WSW,252,4.0,5.0,77,0.00,,---,0.00,VWS V14.00,2013-03-12 00:25:00,
2013-03-11 20:29:00,44.5,37.8,30.11,SSE,161,2.0,9.0,77,0.00,,---,0.00,VWS V14.00,2013-03-12 00:29:00,
2013-03-11 20:30:00,44.5,37.8,30.11,WSW,242,3.0,3.0,77,0.00,,---,0.00,VWS V14.00,2013-03-12 00:30:00,
2013-03-11 20:34:00,44.5,37.8,30.11,South,191,3.0,11.0,77,0.00,,---,0.00,VWS V14.00,2013-03-12 00:34:00,
2013-03-11 20:35:00,44.5,37.8,30.11,SW,222,6.0,11.0,77,0.00,,---,0.00,VWS V14.00,2013-03-12 00:35:00,
2013-03-11 20:39:00,44.5,38.1,30.11,SW,236,1.0,11.0,78,0.00,,---,0.00,VWS V14.00,2013-03-12 00:39:00,
2013-03-11 20:40:00,44.5,37.8,30.11,SW,235,0.0,11.0,77,0.00,,---,0.00,VWS V14.00,2013-03-12 00:40:00,
2013-03-11 20:41:00,44.5,37.8,30.11,South,186,2.0,11.0,77,0.00,,---,0.00,VWS V14.00,2013-03-12 00:41:00,
2013-03-11 20:44:00,44.5,38.1,30.11,SW,219,0.0,1.0,78,0.00,,---,0.00,VWS V14.00,2013-03-12 00:44:00,
2013-03-11 20:45:00,44.5,38.1,30.11,SW,234,3.0,4.0,78,0.00,,---,0.00,VWS V14.00,2013-03-12 00:45:00,
2013-03-11 20:46:00,44.5,38.1,30.11,SSW,195,0.0,4.0,78,0.00,,---,0.00,VWS V14.00,2013-03-12 00:46:00,
2013-03-11 20:49:00,44.3,37.9,30.11,South,188,2.0,4.0,78,0.00,,---,0.00,VWS V14.00,2013-03-12 00:49:00,
2013-03-11 20:50:00,44.3,37.9,30.11,SSW,195,3.0,4.0,78,0.00,,---,0.00,VWS V14.00,2013-03-12 00:50:00,
2013-03-11 20:51:00,44.3,37.9,30.11,SSW,195,1.0,7.0,78,0.00,,---,0.00,VWS V14.00,2013-03-12 00:51:00,
2013-03-11 20:55:00,44.3,37.9,30.11,SE,145,0.0,7.0,78,0.00,,---,0.00,VWS V14.00,2013-03-12 00:55:00,
2013-03-11 20:56:00,44.3,37.9,30.11,SSE,149,0.0,7.0,78,0.00,,---,0.00,VWS V14.00,2013-03-12 00:56:00,
2013-03-11 21:00:00,44.2,38.1,30.11,SSW,200,0.0,2.0,79,0.00,,---,0.00,VWS V14.00,2013-03-12 01:00:00,
2013-03-11 21:01:00,44.2,38.1,30.11,SSW,200,1.0,2.0,79,0.00,,---,0.00,VWS V14.00,2013-03-12 01:01:00,
2013-03-11 21:05:00,44.2,38.1,30.11,SSW,210,4.0,5.0,79,0.00,,---,0.00,VWS V14.00,2013-03-12 01:05:00,
2013-03-11 21:06:00,44.2,38.1,30.11,South,184,0.0,5.0,79,0.00,,---,0.00,VWS V14.00,2013-03-12 01:06:00,
2013-03-11 21:07:00,44.2,38.1,30.11,South,184,0.0,5.0,79,0.00,,---,0.00,VWS V14.00,2013-03-12 01:07:00,
2013-03-11 21:10:00,44.1,38.0,30.11,SSW,193,2.0,9.0,79,0.00,,---,0.00,VWS V14.00,2013-03-12 01:10:00,
2013-03-11 21:11:00,44.1,38.0,30.11,SSW,193,2.0,9.0,79,0.00,,---,0.00,VWS V14.00,2013-03-12 01:11:00,
2013-03-11 21:12:00,44.1,38.0,30.11,South,186,4.0,9.0,79,0.00,,---,0.00,VWS V14.00,2013-03-12 01:12:00,
2013-03-11 21:15:00,44.1,38.3,30.11,SSW,212,0.0,5.0,80,0.00,,---,0.00,VWS V14.00,2013-03-12 01:15:00,
2013-03-11 21:16:00,44.1,38.3,30.11,SSW,212,0.0,5.0,80,0.00,,---,0.00,VWS V14.00,2013-03-12 01:16:00,
2013-03-11 21:17:00,44.1,38.3,30.11,SSW,212,0.0,5.0,80,0.00,,---,0.00,VWS V14.00,2013-03-12 01:17:00,
2013-03-11 21:20:00,43.8,38.0,30.11,South,174,1.0,5.0,80,0.00,,---,0.00,VWS V14.00,2013-03-12 01:20:00,
2013-03-11 21:21:00,43.8,38.0,30.11,South,174,3.0,5.0,80,0.00,,---,0.00,VWS V14.00,2013-03-12 01:21:00,
2013-03-11 21:22:00,43.8,38.0,30.11,SSE,160,3.0,5.0,80,0.00,,---,0.00,VWS V14.00,2013-03-12 01:22:00,
2013-03-11 21:25:00,43.8,38.0,30.11,SSE,147,0.0,5.0,80,0.00,,---,0.00,VWS V14.00,2013-03-12 01:25:00,
2013-03-11 21:27:00,43.8,38.0,30.11,SSE,154,0.0,5.0,80,0.00,,---,0.00,VWS V14.00,2013-03-12 01:27:00,
2013-03-11 21:28:00,43.8,38.0,30.11,SSE,155,0.0,5.0,80,0.00,,---,0.00,VWS V14.00,2013-03-12 01:28:00,
2013-03-11 21:30:00,43.6,38.2,30.10,SSE,155,0.0,6.0,81,0.00,,---,0.00,VWS V14.00,2013-03-12 01:30:00,
2013-03-11 21:32:00,43.6,38.2,30.10,SSE,168,5.0,6.0,81,0.00,,---,0.00,VWS V14.00,2013-03-12 01:32:00,
2013-03-11 21:33:00,43.6,38.2,30.10,South,184,0.0,6.0,81,0.00,,---,0.00,VWS V14.00,2013-03-12 01:33:00,
2013-03-11 21:35:00,43.6,38.2,30.10,SSW,193,0.0,6.0,81,0.00,,---,0.00,VWS V14.00,2013-03-12 01:35:00,
2013-03-11 21:37:00,43.6,38.2,30.10,SW,219,4.0,6.0,81,0.00,,---,0.00,VWS V14.00,2013-03-12 01:37:00,
2013-03-11 21:38:00,43.6,38.2,30.10,South,174,3.0,6.0,81,0.00,,---,0.00,VWS V14.00,2013-03-12 01:38:00,
2013-03-11 21:41:00,43.5,38.1,30.10,SW,226,0.0,6.0,81,0.00,,---,0.00,VWS V14.00,2013-03-12 01:41:00,
2013-03-11 21:42:00,43.5,38.1,30.10,SW,226,0.0,6.0,81,0.00,,---,0.00,VWS V14.00,2013-03-12 01:42:00,
2013-03-11 21:43:00,43.5,38.1,30.10,South,184,1.0,6.0,81,0.00,,---,0.00,VWS V14.00,2013-03-12 01:43:00,
2013-03-11 21:45:00,42.8,38.9,30.09,SSW,205,4.0,7.0,86,0.00,,---,0.00,VWS V14.00,2013-03-12 01:45:00,
2013-03-11 21:46:00,43.3,38.2,30.10,South,188,1.0,4.0,82,0.00,,---,0.00,VWS V14.00,2013-03-12 01:46:00,
2013-03-11 21:47:00,43.3,38.2,30.10,SSW,194,2.0,6.0,82,0.00,,---,0.00,VWS V14.00,2013-03-12 01:47:00,
2013-03-11 21:48:00,43.3,38.2,30.10,WSW,252,5.0,7.0,82,0.00,,---,0.00,VWS V14.00,2013-03-12 01:48:00,
2013-03-11 21:52:00,43.3,38.2,30.10,SW,217,1.0,7.0,82,0.00,,---,0.00,VWS V14.00,2013-03-12 01:52:00,
2013-03-11 21:53:00,43.3,38.2,30.10,SSW,211,0.0,7.0,82,0.00,,---,0.00,VWS V14.00,2013-03-12 01:53:00,
2013-03-11 21:54:00,43.2,38.1,30.10,SSW,210,1.0,7.0,82,0.00,,---,0.00,VWS V14.00,2013-03-12 01:54:00,
2013-03-11 21:57:00,43.2,38.4,30.10,SSW,207,1.0,7.0,83,0.00,,---,0.00,VWS V14.00,2013-03-12 01:57:00,
2013-03-11 21:58:00,43.2,38.4,30.10,SSW,195,3.0,7.0,83,0.00,,---,0.00,VWS V14.00,2013-03-12 01:58:00,
2013-03-11 21:59:00,43.2,38.4,30.10,SW,228,3.0,7.0,83,0.00,,---,0.00,VWS V14.00,2013-03-12 01:59:00,
2013-03-11 22:00:00,42.8,38.9,30.09,SSW,202,0.0,7.0,86,0.00,,---,0.00,VWS V14.00,2013-03-12 02:00:00,
2013-03-11 22:02:00,43.2,38.4,30.10,WSW,250,3.0,10.0,83,0.00,,---,0.00,VWS V14.00,2013-03-12 02:02:00,
2013-03-11 22:03:00,43.2,38.4,30.10,WSW,248,1.0,10.0,83,0.00,,---,0.00,VWS V14.00,2013-03-12 02:03:00,
2013-03-11 22:04:00,43.2,38.4,30.10,SSW,193,3.0,10.0,83,0.00,,---,0.00,VWS V14.00,2013-03-12 02:04:00,
2013-03-11 22:07:00,43.1,38.3,30.10,South,175,1.0,10.0,83,0.00,,---,0.00,VWS V14.00,2013-03-12 02:07:00,
2013-03-11 22:08:00,43.1,38.3,30.10,South,188,4.0,10.0,83,0.00,,---,0.00,VWS V14.00,2013-03-12 02:08:00,
2013-03-11 22:09:00,43.1,38.6,30.10,West,279,2.0,10.0,84,0.00,,---,0.00,VWS V14.00,2013-03-12 02:09:00,
2013-03-11 22:12:00,43.1,38.6,30.10,WSW,239,1.0,10.0,84,0.00,,---,0.00,VWS V14.00,2013-03-12 02:12:00,
2013-03-11 22:13:00,43.1,38.6,30.10,SSW,210,4.0,10.0,84,0.00,,---,0.00,VWS V14.00,2013-03-12 02:13:00,
2013-03-11 22:14:00,43.1,38.6,30.10,SSW,210,1.0,10.0,84,0.00,,---,0.00,VWS V14.00,2013-03-12 02:14:00,
2013-03-11 22:15:00,42.5,38.6,30.08,SSW,193,0.0,4.0,86,0.00,,---,0.00,VWS V14.00,2013-03-12 02:15:00,
2013-03-11 22:17:00,43.1,38.6,30.10,SW,229,0.0,6.0,84,0.00,,---,0.00,VWS V14.00,2013-03-12 02:17:00,
2013-03-11 22:18:00,43.1,38.6,30.10,SW,229,2.0,6.0,84,0.00,,---,0.00,VWS V14.00,2013-03-12 02:18:00,
2013-03-11 22:19:00,43.1,38.6,30.10,SW,231,2.0,6.0,84,0.00,,---,0.00,VWS V14.00,2013-03-12 02:19:00,
2013-03-11 22:23:00,42.9,38.7,30.10,SW,231,1.0,6.0,85,0.00,,---,0.00,VWS V14.00,2013-03-12 02:23:00,
2013-03-11 22:24:00,42.9,38.7,30.10,SSW,204,2.0,6.0,85,0.00,,---,0.00,VWS V14.00,2013-03-12 02:24:00,
2013-03-11 22:28:00,42.9,38.7,30.10,South,178,1.0,6.0,85,0.00,,---,0.00,VWS V14.00,2013-03-12 02:28:00,
2013-03-11 22:29:00,42.9,38.7,30.10,South,178,0.0,6.0,85,0.00,,---,0.00,VWS V14.00,2013-03-12 02:29:00,
2013-03-11 22:30:00,42.2,38.6,30.10,SW,218,0.0,4.0,87,0.00,,---,0.00,VWS V14.00,2013-03-12 02:30:00,
2013-03-11 22:33:00,42.9,38.7,30.10,South,178,0.0,7.0,85,0.00,,---,0.00,VWS V14.00,2013-03-12 02:33:00,
2013-03-11 22:34:00,42.9,38.7,30.10,South,178,2.0,7.0,85,0.00,,---,0.00,VWS V14.00,2013-03-12 02:34:00,
2013-03-11 22:38:00,42.9,38.7,30.10,SSW,193,4.0,7.0,85,0.00,,---,0.00,VWS V14.00,2013-03-12 02:38:00,
2013-03-11 22:39:00,42.9,38.7,30.10,South,191,0.0,7.0,85,0.00,,---,0.00,VWS V14.00,2013-03-12 02:39:00,
2013-03-11 22:43:00,42.9,39.0,30.10,SSW,193,2.0,7.0,86,0.00,,---,0.00,VWS V14.00,2013-03-12 02:43:00,
2013-03-11 22:44:00,42.8,38.9,30.09,SSW,205,4.0,7.0,86,0.00,,---,0.00,VWS V14.00,2013-03-12 02:44:00,
2013-03-11 22:45:00,42.2,38.9,30.10,SSW,199,2.0,5.0,88,0.00,,---,0.00,VWS V14.00,2013-03-12 02:45:00,
2013-03-11 22:48:00,42.9,39.0,30.09,SW,228,4.0,7.0,86,0.00,,---,0.00,VWS V14.00,2013-03-12 02:48:00,
2013-03-11 22:49:00,42.9,39.0,30.09,SW,228,0.0,7.0,86,0.00,,---,0.00,VWS V14.00,2013-03-12 02:49:00,
2013-03-11 22:53:00,42.8,38.9,30.09,SSW,195,3.0,7.0,86,0.00,,---,0.00,VWS V14.00,2013-03-12 02:53:00,
2013-03-11 22:54:00,42.8,38.9,30.09,SSW,193,3.0,7.0,86,0.00,,---,0.00,VWS V14.00,2013-03-12 02:54:00,
2013-03-11 22:59:00,42.8,38.9,30.09,SSW,202,0.0,7.0,86,0.00,,---,0.00,VWS V14.00,2013-03-12 02:59:00,
2013-03-11 23:00:00,42.3,39.3,30.10,SSW,198,2.0,4.0,89,0.00,,---,0.00,VWS V14.00,2013-03-12 03:00:00,
2013-03-11 23:01:00,42.3,39.3,30.10,SSW,198,0.0,4.0,89,0.00,,---,0.00,VWS V14.00,2013-03-12 03:01:00,
2013-03-11 23:02:00,42.3,39.3,30.10,SSW,198,0.0,4.0,89,0.00,,---,0.00,VWS V14.00,2013-03-12 03:02:00,
2013-03-11 23:03:00,42.3,39.3,30.10,South,186,0.0,6.0,89,0.00,,---,0.00,VWS V14.00,2013-03-12 03:03:00,
2013-03-11 23:04:00,42.6,38.7,30.09,SSW,208,1.0,4.0,86,0.00,,---,0.00,VWS V14.00,2013-03-12 03:04:00,
2013-03-11 23:05:00,42.3,39.3,30.10,South,186,0.0,6.0,89,0.00,,---,0.00,VWS V14.00,2013-03-12 03:05:00,
2013-03-11 23:09:00,42.6,38.7,30.09,SSW,208,0.0,4.0,86,0.00,,---,0.00,VWS V14.00,2013-03-12 03:09:00,
2013-03-11 23:10:00,42.6,38.7,30.09,SSW,208,0.0,4.0,86,0.00,,---,0.00,VWS V14.00,2013-03-12 03:10:00,
2013-03-11 23:14:00,42.5,38.6,30.08,SSW,193,0.0,4.0,86,0.00,,---,0.00,VWS V14.00,2013-03-12 03:14:00,
2013-03-11 23:15:00,42.5,38.6,30.08,SSW,193,0.0,0.0,86,0.00,,---,0.00,VWS V14.00,2013-03-12 03:15:00,
2013-03-11 23:19:00,42.3,38.7,30.08,SSW,206,1.0,2.0,87,0.00,,---,0.00,VWS V14.00,2013-03-12 03:19:00,
2013-03-11 23:20:00,42.3,38.7,30.08,SSW,206,0.0,2.0,87,0.00,,---,0.00,VWS V14.00,2013-03-12 03:20:00,
2013-03-11 23:24:00,42.2,38.6,30.08,SSW,206,0.0,2.0,87,0.00,,---,0.00,VWS V14.00,2013-03-12 03:24:00,
2013-03-11 23:25:00,42.2,38.6,30.08,SSW,206,1.0,2.0,87,0.00,,---,0.00,VWS V14.00,2013-03-12 03:25:00,
2013-03-11 23:29:00,42.2,38.6,30.10,SW,218,1.0,4.0,87,0.00,,---,0.00,VWS V14.00,2013-03-12 03:29:00,
2013-03-11 23:30:00,42.2,38.6,30.10,SW,218,0.0,1.0,87,0.00,,---,0.00,VWS V14.00,2013-03-12 03:30:00,
2013-03-11 23:34:00,42.2,38.9,30.10,SSW,210,1.0,4.0,88,0.00,,---,0.00,VWS V14.00,2013-03-12 03:34:00,
2013-03-11 23:35:00,42.2,38.9,30.10,SSW,210,0.0,4.0,88,0.00,,---,0.00,VWS V14.00,2013-03-12 03:35:00,
2013-03-11 23:36:00,42.2,38.9,30.10,SSW,210,0.0,4.0,88,0.00,,---,0.00,VWS V14.00,2013-03-12 03:36:00,
2013-03-11 23:39:00,42.1,38.8,30.10,WSW,237,1.0,4.0,88,0.00,,---,0.00,VWS V14.00,2013-03-12 03:39:00,
2013-03-11 23:40:00,42.1,38.8,30.10,WSW,237,0.0,4.0,88,0.00,,---,0.00,VWS V14.00,2013-03-12 03:40:00,
2013-03-11 23:41:00,42.1,38.8,30.10,SSW,203,1.0,4.0,88,0.00,,---,0.00,VWS V14.00,2013-03-12 03:41:00,
2013-03-11 23:44:00,42.2,38.9,30.10,SSW,199,1.0,5.0,88,0.00,,---,0.00,VWS V14.00,2013-03-12 03:44:00,
2013-03-11 23:45:00,42.2,38.9,30.10,SSW,199,0.0,2.0,88,0.00,,---,0.00,VWS V14.00,2013-03-12 03:45:00,
2013-03-11 23:46:00,42.2,38.9,30.10,SSW,199,0.0,2.0,88,0.00,,---,0.00,VWS V14.00,2013-03-12 03:46:00,
2013-03-11 23:49:00,42.2,38.9,30.10,SW,221,5.0,5.0,88,0.00,,---,0.00,VWS V14.00,2013-03-12 03:49:00,
2013-03-11 23:50:00,42.2,39.2,30.10,SW,221,1.0,6.0,89,0.00,,---,0.00,VWS V14.00,2013-03-12 03:50:00,
2013-03-11 23:51:00,42.2,39.2,30.10,SW,220,0.0,6.0,89,0.00,,---,0.00,VWS V14.00,2013-03-12 03:51:00,
2013-03-11 23:54:00,42.2,39.2,30.10,South,176,0.0,6.0,89,0.00,,---,0.00,VWS V14.00,2013-03-12 03:54:00,
2013-03-11 23:55:00,42.2,39.2,30.10,South,176,1.0,6.0,89,0.00,,---,0.00,VWS V14.00,2013-03-12 03:55:00,
2013-03-11 23:56:00,42.2,39.2,30.10,South,176,0.0,6.0,89,0.00,,---,0.00,VWS V14.00,2013-03-12 03:56:00,
2013-03-11 23:57:00,42.2,39.2,30.10,South,176,0.0,6.0,89,0.00,,---,0.00,VWS V14.00,2013-03-12 03:57:00,
2013-03-11 23:59:00,42.3,39.3,30.10,SW,222,1.0,6.0,89,0.00,,---,0.00,VWS V14.00,2013-03-12 03:59:00,